PWSweather.com
Personal Weather Stations
Station Observations
EI4HQ
Cork Harbour, CobhIE

Cork HarbourCobhIE

Lat: 51.85, Lon: -8.29

Elevation: 252

Station Type: Davis Vantage Pro2

http://www.corkharbourweather.ie

High Low Average
Temperature 45.3°F7.4°C 30.2°F-1.0°C 38.4°F3.6°C
Dew Point 42.3°F5.7°C 28.2°F-2.1°C 35.2°F1.8°C
Winds 43.0 mph 69.2 kmh 1.0 mph 1.6 kmh 12.0 mph SW19.3 kmh SW
Wind Gusts 66.0 mph106.2 kmh 4.0 mph6.4 kmh 22.0 mph35.4 kmh
Humidity 94% 72% 88%
Pressure 30.03 in1016.9 mb 29.19 in988.5 mb -
Precipitation 0.24 in6.1 mm - -
Hour Temp Dew Point Humidity Winds Wind Gusts Pressure Precip Precip Rate Daily Precip Total
12:00 AM 32.2°F0.1°C 30.2°F-1.0°C 92% 4.0 mph WNW6.4 kmh WNW 10.0 mph16.1 kmh 30.03 in1016.9 mb 0.00 in0.0 mm 0.00 in0.0 mm 0.00 in0.0 mm
12:03 AM 32.2°F0.1°C 29.8°F-1.2°C 91% 4.0 mph NW6.4 kmh NW 10.0 mph16.1 kmh 30.03 in1016.9 mb 0.00 in0.0 mm 0.00 in0.0 mm 0.00 in0.0 mm
12:06 AM 32.0°F0.0°C 29.7°F-1.3°C 91% 3.0 mph NW4.8 kmh NW 10.0 mph16.1 kmh 30.03 in1016.9 mb 0.00 in0.0 mm 0.00 in0.0 mm 0.00 in0.0 mm
12:09 AM 31.8°F-0.1°C 29.7°F-1.3°C 91% 3.0 mph NW4.8 kmh NW 7.0 mph11.3 kmh 30.03 in1016.9 mb 0.00 in0.0 mm 0.00 in0.0 mm 0.00 in0.0 mm
12:12 AM 31.6°F-0.2°C 29.3°F-1.5°C 91% 3.0 mph WNW4.8 kmh WNW 7.0 mph11.3 kmh 30.03 in1016.9 mb 0.00 in0.0 mm 0.00 in0.0 mm 0.00 in0.0 mm
12:15 AM 31.6°F-0.2°C 29.3°F-1.5°C 91% 3.0 mph WNW4.8 kmh WNW 7.0 mph11.3 kmh 30.03 in1016.9 mb 0.00 in0.0 mm 0.00 in0.0 mm 0.00 in0.0 mm
12:18 AM 31.6°F-0.2°C 29.3°F-1.5°C 91% 4.0 mph WNW6.4 kmh WNW 9.0 mph14.5 kmh 30.03 in1016.9 mb 0.00 in0.0 mm 0.00 in0.0 mm 0.00 in0.0 mm
12:21 AM 31.8°F-0.1°C 29.5°F-1.4°C 91% 4.0 mph WNW6.4 kmh WNW 9.0 mph14.5 kmh 30.02 in1016.6 mb 0.00 in0.0 mm 0.00 in0.0 mm 0.00 in0.0 mm
12:24 AM 31.8°F-0.1°C 29.7°F-1.3°C 92% 4.0 mph W6.4 kmh W 9.0 mph14.5 kmh 30.03 in1016.9 mb 0.00 in0.0 mm 0.00 in0.0 mm 0.00 in0.0 mm
12:27 AM 31.8°F-0.1°C 29.8°F-1.2°C 92% 4.0 mph W6.4 kmh W 10.0 mph16.1 kmh 30.02 in1016.6 mb 0.00 in0.0 mm 0.00 in0.0 mm 0.00 in0.0 mm
12:30 AM 32.0°F0.0°C 29.7°F-1.3°C 91% 5.0 mph WSW8.0 kmh WSW 10.0 mph16.1 kmh 30.02 in1016.6 mb 0.00 in0.0 mm 0.00 in0.0 mm 0.00 in0.0 mm
12:33 AM 32.2°F0.1°C 29.8°F-1.2°C 91% 5.0 mph WSW8.0 kmh WSW 10.0 mph16.1 kmh 30.02 in1016.6 mb 0.00 in0.0 mm 0.00 in0.0 mm 0.00 in0.0 mm
12:36 AM 32.0°F0.0°C 29.7°F-1.3°C 91% 5.0 mph WSW8.0 kmh WSW 10.0 mph16.1 kmh 30.02 in1016.6 mb 0.00 in0.0 mm 0.00 in0.0 mm 0.00 in0.0 mm
12:39 AM 32.0°F0.0°C 29.7°F-1.3°C 91% 5.0 mph WSW8.0 kmh WSW 9.0 mph14.5 kmh 30.02 in1016.6 mb 0.00 in0.0 mm 0.00 in0.0 mm 0.00 in0.0 mm
12:42 AM 32.0°F0.0°C 29.7°F-1.3°C 91% 5.0 mph WSW8.0 kmh WSW 10.0 mph16.1 kmh 30.02 in1016.6 mb 0.00 in0.0 mm 0.00 in0.0 mm 0.00 in0.0 mm
12:45 AM 32.0°F0.0°C 29.7°F-1.3°C 91% 5.0 mph WSW8.0 kmh WSW 10.0 mph16.1 kmh 30.02 in1016.6 mb 0.00 in0.0 mm 0.00 in0.0 mm 0.00 in0.0 mm
12:48 AM 32.0°F0.0°C 29.7°F-1.3°C 91% 5.0 mph WSW8.0 kmh WSW 10.0 mph16.1 kmh 30.03 in1016.9 mb 0.00 in0.0 mm 0.00 in0.0 mm 0.00 in0.0 mm
12:51 AM 31.8°F-0.1°C 29.7°F-1.3°C 91% 4.0 mph WSW6.4 kmh WSW 11.0 mph17.7 kmh 30.03 in1016.9 mb 0.00 in0.0 mm 0.00 in0.0 mm 0.00 in0.0 mm
12:54 AM 31.8°F-0.1°C 29.7°F-1.3°C 91% 4.0 mph WSW6.4 kmh WSW 11.0 mph17.7 kmh 30.03 in1016.9 mb 0.00 in0.0 mm 0.00 in0.0 mm 0.00 in0.0 mm
12:57 AM 31.8°F-0.1°C 29.7°F-1.3°C 91% 4.0 mph WSW6.4 kmh WSW 11.0 mph17.7 kmh 30.03 in1016.9 mb 0.00 in0.0 mm 0.00 in0.0 mm 0.00 in0.0 mm
01:00 AM 31.8°F-0.1°C 29.7°F-1.3°C 91% 4.0 mph WSW6.4 kmh WSW 11.0 mph17.7 kmh 30.03 in1016.9 mb 0.00 in0.0 mm 0.00 in0.0 mm 0.00 in0.0 mm
01:03 AM 31.8°F-0.1°C 29.5°F-1.4°C 91% 3.0 mph W4.8 kmh W 8.0 mph12.9 kmh 30.03 in1016.9 mb 0.00 in0.0 mm 0.00 in0.0 mm 0.00 in0.0 mm
01:06 AM 31.6°F-0.2°C 29.3°F-1.5°C 91% 3.0 mph W4.8 kmh W 8.0 mph12.9 kmh 30.03 in1016.9 mb 0.00 in0.0 mm 0.00 in0.0 mm 0.00 in0.0 mm
01:09 AM 31.5°F-0.3°C 29.1°F-1.6°C 91% 4.0 mph W6.4 kmh W 8.0 mph12.9 kmh 30.02 in1016.6 mb 0.00 in0.0 mm 0.00 in0.0 mm 0.00 in0.0 mm
01:12 AM 31.5°F-0.3°C 29.1°F-1.6°C 91% 4.0 mph W6.4 kmh W 8.0 mph12.9 kmh 30.03 in1016.9 mb 0.00 in0.0 mm 0.00 in0.0 mm 0.00 in0.0 mm
01:15 AM 31.5°F-0.3°C 29.1°F-1.6°C 91% 4.0 mph W6.4 kmh W 10.0 mph16.1 kmh 30.03 in1016.9 mb 0.00 in0.0 mm 0.00 in0.0 mm 0.00 in0.0 mm
01:18 AM 31.5°F-0.3°C 29.1°F-1.6°C 91% 4.0 mph W6.4 kmh W 11.0 mph17.7 kmh 30.03 in1016.9 mb 0.00 in0.0 mm 0.00 in0.0 mm 0.00 in0.0 mm
01:21 AM 31.5°F-0.3°C 29.3°F-1.5°C 92% 4.0 mph W6.4 kmh W 11.0 mph17.7 kmh 30.03 in1016.9 mb 0.00 in0.0 mm 0.00 in0.0 mm 0.00 in0.0 mm
01:24 AM 31.5°F-0.3°C 29.1°F-1.6°C 91% 4.0 mph W6.4 kmh W 11.0 mph17.7 kmh 30.02 in1016.6 mb 0.00 in0.0 mm 0.00 in0.0 mm 0.00 in0.0 mm
01:27 AM 31.5°F-0.3°C 29.1°F-1.6°C 91% 4.0 mph WSW6.4 kmh WSW 9.0 mph14.5 kmh 30.02 in1016.6 mb 0.00 in0.0 mm 0.00 in0.0 mm 0.00 in0.0 mm
01:30 AM 31.3°F-0.4°C 28.9°F-1.7°C 91% 4.0 mph WSW6.4 kmh WSW 9.0 mph14.5 kmh 30.02 in1016.6 mb 0.00 in0.0 mm 0.00 in0.0 mm 0.00 in0.0 mm
01:33 AM 31.3°F-0.4°C 28.9°F-1.7°C 91% 4.0 mph W6.4 kmh W 9.0 mph14.5 kmh 30.02 in1016.6 mb 0.00 in0.0 mm 0.00 in0.0 mm 0.00 in0.0 mm
01:36 AM 31.3°F-0.4°C 28.9°F-1.7°C 91% 5.0 mph W8.0 kmh W 10.0 mph16.1 kmh 30.02 in1016.6 mb 0.00 in0.0 mm 0.00 in0.0 mm 0.00 in0.0 mm
01:39 AM 31.3°F-0.4°C 29.3°F-1.5°C 92% 5.0 mph W8.0 kmh W 10.0 mph16.1 kmh 30.03 in1016.9 mb 0.00 in0.0 mm 0.00 in0.0 mm 0.00 in0.0 mm
01:42 AM 31.5°F-0.3°C 29.3°F-1.5°C 92% 4.0 mph W6.4 kmh W 10.0 mph16.1 kmh 30.02 in1016.6 mb 0.00 in0.0 mm 0.00 in0.0 mm 0.00 in0.0 mm
01:45 AM 31.3°F-0.4°C 29.3°F-1.5°C 92% 3.0 mph W4.8 kmh W 9.0 mph14.5 kmh 30.02 in1016.6 mb 0.00 in0.0 mm 0.00 in0.0 mm 0.00 in0.0 mm
01:48 AM 31.3°F-0.4°C 28.9°F-1.7°C 91% 3.0 mph W4.8 kmh W 8.0 mph12.9 kmh 30.02 in1016.6 mb 0.00 in0.0 mm 0.00 in0.0 mm 0.00 in0.0 mm
01:51 AM 31.3°F-0.4°C 29.1°F-1.6°C 92% 3.0 mph W4.8 kmh W 8.0 mph12.9 kmh 30.02 in1016.6 mb 0.00 in0.0 mm 0.00 in0.0 mm 0.00 in0.0 mm
01:54 AM 31.3°F-0.4°C 29.1°F-1.6°C 92% 3.0 mph W4.8 kmh W 8.0 mph12.9 kmh 30.02 in1016.6 mb 0.00 in0.0 mm 0.00 in0.0 mm 0.00 in0.0 mm
01:57 AM 31.3°F-0.4°C 29.1°F-1.6°C 92% 3.0 mph W4.8 kmh W 8.0 mph12.9 kmh 30.02 in1016.6 mb 0.00 in0.0 mm 0.00 in0.0 mm 0.00 in0.0 mm
02:00 AM 31.3°F-0.4°C 29.3°F-1.5°C 92% 3.0 mph W4.8 kmh W 11.0 mph17.7 kmh 30.02 in1016.6 mb 0.00 in0.0 mm 0.00 in0.0 mm 0.00 in0.0 mm
02:03 AM 31.3°F-0.4°C 29.3°F-1.5°C 92% 4.0 mph WSW6.4 kmh WSW 11.0 mph17.7 kmh 30.02 in1016.6 mb 0.00 in0.0 mm 0.00 in0.0 mm 0.00 in0.0 mm
02:06 AM 31.5°F-0.3°C 29.5°F-1.4°C 92% 5.0 mph WSW8.0 kmh WSW 11.0 mph17.7 kmh 30.02 in1016.6 mb 0.00 in0.0 mm 0.00 in0.0 mm 0.00 in0.0 mm
02:09 AM 31.6°F-0.2°C 29.5°F-1.4°C 92% 5.0 mph WSW8.0 kmh WSW 11.0 mph17.7 kmh 30.02 in1016.6 mb 0.00 in0.0 mm 0.00 in0.0 mm 0.00 in0.0 mm
02:12 AM 31.6°F-0.2°C 29.7°F-1.3°C 92% 4.0 mph WSW6.4 kmh WSW 11.0 mph17.7 kmh 30.02 in1016.6 mb 0.00 in0.0 mm 0.00 in0.0 mm 0.00 in0.0 mm
02:15 AM 31.6°F-0.2°C 29.5°F-1.4°C 92% 3.0 mph W4.8 kmh W 11.0 mph17.7 kmh 30.02 in1016.6 mb 0.00 in0.0 mm 0.00 in0.0 mm 0.00 in0.0 mm
02:18 AM 31.6°F-0.2°C 29.5°F-1.4°C 92% 2.0 mph W3.2 kmh W 8.0 mph12.9 kmh 30.02 in1016.6 mb 0.00 in0.0 mm 0.00 in0.0 mm 0.00 in0.0 mm
02:21 AM 31.5°F-0.3°C 29.5°F-1.4°C 92% 1.0 mph WNW1.6 kmh WNW 7.0 mph11.3 kmh 30.01 in1016.3 mb 0.00 in0.0 mm 0.00 in0.0 mm 0.00 in0.0 mm
02:24 AM 31.5°F-0.3°C 29.1°F-1.6°C 91% 2.0 mph WNW3.2 kmh WNW 7.0 mph11.3 kmh 30.01 in1016.3 mb 0.00 in0.0 mm 0.00 in0.0 mm 0.00 in0.0 mm
02:27 AM 31.3°F-0.4°C 28.9°F-1.7°C 91% 3.0 mph W4.8 kmh W 7.0 mph11.3 kmh 30.01 in1016.3 mb 0.00 in0.0 mm 0.00 in0.0 mm 0.00 in0.0 mm
02:30 AM 31.3°F-0.4°C 29.1°F-1.6°C 92% 4.0 mph W6.4 kmh W 9.0 mph14.5 kmh 30.01 in1016.3 mb 0.00 in0.0 mm 0.00 in0.0 mm 0.00 in0.0 mm
02:33 AM 31.5°F-0.3°C 29.3°F-1.5°C 92% 4.0 mph WSW6.4 kmh WSW 9.0 mph14.5 kmh 30.01 in1016.3 mb 0.00 in0.0 mm 0.00 in0.0 mm 0.00 in0.0 mm
02:36 AM 31.5°F-0.3°C 29.5°F-1.4°C 92% 5.0 mph WSW8.0 kmh WSW 9.0 mph14.5 kmh 30.01 in1016.3 mb 0.00 in0.0 mm 0.00 in0.0 mm 0.00 in0.0 mm
02:39 AM 31.6°F-0.2°C 29.5°F-1.4°C 92% 5.0 mph WSW8.0 kmh WSW 9.0 mph14.5 kmh 30.01 in1016.3 mb 0.00 in0.0 mm 0.00 in0.0 mm 0.00 in0.0 mm
02:42 AM 31.6°F-0.2°C 29.5°F-1.4°C 92% 4.0 mph W6.4 kmh W 8.0 mph12.9 kmh 30.02 in1016.6 mb 0.00 in0.0 mm 0.00 in0.0 mm 0.00 in0.0 mm
02:45 AM 31.5°F-0.3°C 29.5°F-1.4°C 92% 4.0 mph W6.4 kmh W 9.0 mph14.5 kmh 30.02 in1016.6 mb 0.00 in0.0 mm 0.00 in0.0 mm 0.00 in0.0 mm
02:48 AM 31.5°F-0.3°C 29.5°F-1.4°C 92% 4.0 mph W6.4 kmh W 9.0 mph14.5 kmh 30.02 in1016.6 mb 0.00 in0.0 mm 0.00 in0.0 mm 0.00 in0.0 mm
02:51 AM 31.5°F-0.3°C 29.5°F-1.4°C 92% 4.0 mph W6.4 kmh W 9.0 mph14.5 kmh 30.02 in1016.6 mb 0.00 in0.0 mm 0.00 in0.0 mm 0.00 in0.0 mm
02:54 AM 31.5°F-0.3°C 29.5°F-1.4°C 92% 5.0 mph W8.0 kmh W 11.0 mph17.7 kmh 30.01 in1016.3 mb 0.00 in0.0 mm 0.00 in0.0 mm 0.00 in0.0 mm
02:57 AM 31.6°F-0.2°C 29.5°F-1.4°C 92% 5.0 mph W8.0 kmh W 11.0 mph17.7 kmh 30.01 in1016.3 mb 0.00 in0.0 mm 0.00 in0.0 mm 0.00 in0.0 mm
03:00 AM 31.6°F-0.2°C 29.7°F-1.3°C 92% 5.0 mph W8.0 kmh W 11.0 mph17.7 kmh 30.01 in1016.3 mb 0.00 in0.0 mm 0.00 in0.0 mm 0.00 in0.0 mm
03:03 AM 31.8°F-0.1°C 30.0°F-1.1°C 93% 5.0 mph W8.0 kmh W 11.0 mph17.7 kmh 30.01 in1016.3 mb 0.00 in0.0 mm 0.00 in0.0 mm 0.00 in0.0 mm
03:06 AM 32.0°F0.0°C 30.0°F-1.1°C 92% 4.0 mph WSW6.4 kmh WSW 9.0 mph14.5 kmh 30.01 in1016.3 mb 0.00 in0.0 mm 0.00 in0.0 mm 0.00 in0.0 mm
03:09 AM 32.0°F0.0°C 30.0°F-1.1°C 92% 5.0 mph WSW8.0 kmh WSW 10.0 mph16.1 kmh 30.01 in1016.3 mb 0.00 in0.0 mm 0.00 in0.0 mm 0.00 in0.0 mm
03:12 AM 32.0°F0.0°C 30.0°F-1.1°C 92% 5.0 mph WSW8.0 kmh WSW 11.0 mph17.7 kmh 30.01 in1016.3 mb 0.00 in0.0 mm 0.00 in0.0 mm 0.00 in0.0 mm
03:15 AM 32.2°F0.1°C 30.0°F-1.1°C 92% 7.0 mph WSW11.3 kmh WSW 11.0 mph17.7 kmh 30.01 in1016.3 mb 0.00 in0.0 mm 0.00 in0.0 mm 0.00 in0.0 mm
03:18 AM 32.2°F0.1°C 30.2°F-1.0°C 92% 7.0 mph WSW11.3 kmh WSW 13.0 mph20.9 kmh 30.01 in1016.3 mb 0.00 in0.0 mm 0.00 in0.0 mm 0.00 in0.0 mm
03:21 AM 32.2°F0.1°C 30.2°F-1.0°C 92% 8.0 mph WSW12.9 kmh WSW 13.0 mph20.9 kmh 30.01 in1016.3 mb 0.00 in0.0 mm 0.00 in0.0 mm 0.00 in0.0 mm
03:24 AM 32.2°F0.1°C 30.2°F-1.0°C 92% 7.0 mph WSW11.3 kmh WSW 13.0 mph20.9 kmh 30.01 in1016.3 mb 0.00 in0.0 mm 0.00 in0.0 mm 0.00 in0.0 mm
03:27 AM 32.4°F0.2°C 30.2°F-1.0°C 92% 6.0 mph WSW9.7 kmh WSW 11.0 mph17.7 kmh 30.01 in1016.3 mb 0.00 in0.0 mm 0.00 in0.0 mm 0.00 in0.0 mm
03:30 AM 32.4°F0.2°C 30.2°F-1.0°C 92% 6.0 mph WSW9.7 kmh WSW 11.0 mph17.7 kmh 30.01 in1016.3 mb 0.00 in0.0 mm 0.00 in0.0 mm 0.00 in0.0 mm
03:33 AM 32.4°F0.2°C 30.4°F-0.9°C 92% 5.0 mph W8.0 kmh W 11.0 mph17.7 kmh 30.01 in1016.3 mb 0.00 in0.0 mm 0.00 in0.0 mm 0.00 in0.0 mm
03:36 AM 32.4°F0.2°C 30.4°F-0.9°C 92% 5.0 mph WSW8.0 kmh WSW 9.0 mph14.5 kmh 30.01 in1016.3 mb 0.00 in0.0 mm 0.00 in0.0 mm 0.00 in0.0 mm
03:39 AM 32.4°F0.2°C 30.2°F-1.0°C 92% 5.0 mph W8.0 kmh W 10.0 mph16.1 kmh 30.01 in1016.3 mb 0.00 in0.0 mm 0.00 in0.0 mm 0.00 in0.0 mm
03:42 AM 32.4°F0.2°C 30.2°F-1.0°C 92% 5.0 mph W8.0 kmh W 10.0 mph16.1 kmh 30.01 in1016.3 mb 0.00 in0.0 mm 0.00 in0.0 mm 0.00 in0.0 mm
03:45 AM 32.4°F0.2°C 30.2°F-1.0°C 92% 5.0 mph W8.0 kmh W 10.0 mph16.1 kmh 30.01 in1016.3 mb 0.00 in0.0 mm 0.00 in0.0 mm 0.00 in0.0 mm
03:48 AM 32.4°F0.2°C 30.2°F-1.0°C 92% 5.0 mph W8.0 kmh W 10.0 mph16.1 kmh 30.01 in1016.3 mb 0.00 in0.0 mm 0.00 in0.0 mm 0.00 in0.0 mm
03:51 AM 32.4°F0.2°C 30.2°F-1.0°C 92% 4.0 mph W6.4 kmh W 10.0 mph16.1 kmh 30.01 in1016.3 mb 0.00 in0.0 mm 0.00 in0.0 mm 0.00 in0.0 mm
03:54 AM 32.2°F0.1°C 30.2°F-1.0°C 92% 4.0 mph W6.4 kmh W 10.0 mph16.1 kmh 30.00 in1015.9 mb 0.00 in0.0 mm 0.00 in0.0 mm 0.00 in0.0 mm
03:57 AM 32.2°F0.1°C 30.0°F-1.1°C 92% 4.0 mph W6.4 kmh W 10.0 mph16.1 kmh 30.00 in1015.9 mb 0.00 in0.0 mm 0.00 in0.0 mm 0.00 in0.0 mm
04:00 AM 32.2°F0.1°C 30.0°F-1.1°C 92% 4.0 mph W6.4 kmh W 10.0 mph16.1 kmh 30.00 in1015.9 mb 0.00 in0.0 mm 0.00 in0.0 mm 0.00 in0.0 mm
04:03 AM 32.0°F0.0°C 30.0°F-1.1°C 92% 5.0 mph W8.0 kmh W 10.0 mph16.1 kmh 30.00 in1015.9 mb 0.00 in0.0 mm 0.00 in0.0 mm 0.00 in0.0 mm
04:06 AM 32.0°F0.0°C 30.0°F-1.1°C 92% 5.0 mph W8.0 kmh W 9.0 mph14.5 kmh 30.00 in1015.9 mb 0.00 in0.0 mm 0.00 in0.0 mm 0.00 in0.0 mm
04:09 AM 32.0°F0.0°C 30.0°F-1.1°C 92% 4.0 mph W6.4 kmh W 9.0 mph14.5 kmh 30.00 in1015.9 mb 0.00 in0.0 mm 0.00 in0.0 mm 0.00 in0.0 mm
04:12 AM 32.0°F0.0°C 30.0°F-1.1°C 92% 4.0 mph W6.4 kmh W 9.0 mph14.5 kmh 30.00 in1015.9 mb 0.00 in0.0 mm 0.00 in0.0 mm 0.00 in0.0 mm
04:15 AM 31.8°F-0.1°C 29.8°F-1.2°C 92% 4.0 mph W6.4 kmh W 9.0 mph14.5 kmh 30.00 in1015.9 mb 0.00 in0.0 mm 0.00 in0.0 mm 0.00 in0.0 mm
04:18 AM 31.8°F-0.1°C 29.8°F-1.2°C 92% 4.0 mph W6.4 kmh W 8.0 mph12.9 kmh 30.00 in1015.9 mb 0.00 in0.0 mm 0.00 in0.0 mm 0.00 in0.0 mm
04:21 AM 31.8°F-0.1°C 29.8°F-1.2°C 92% 3.0 mph W4.8 kmh W 8.0 mph12.9 kmh 30.00 in1015.9 mb 0.00 in0.0 mm 0.00 in0.0 mm 0.00 in0.0 mm
04:24 AM 31.8°F-0.1°C 29.7°F-1.3°C 92% 3.0 mph W4.8 kmh W 8.0 mph12.9 kmh 30.00 in1015.9 mb 0.00 in0.0 mm 0.00 in0.0 mm 0.00 in0.0 mm
04:27 AM 31.6°F-0.2°C 29.7°F-1.3°C 92% 3.0 mph W4.8 kmh W 7.0 mph11.3 kmh 30.00 in1015.9 mb 0.00 in0.0 mm 0.00 in0.0 mm 0.00 in0.0 mm
04:30 AM 31.6°F-0.2°C 29.3°F-1.5°C 91% 3.0 mph W4.8 kmh W 8.0 mph12.9 kmh 30.00 in1015.9 mb 0.00 in0.0 mm 0.00 in0.0 mm 0.00 in0.0 mm
04:33 AM 31.5°F-0.3°C 29.5°F-1.4°C 92% 3.0 mph W4.8 kmh W 8.0 mph12.9 kmh 30.00 in1015.9 mb 0.00 in0.0 mm 0.00 in0.0 mm 0.00 in0.0 mm
04:36 AM 31.5°F-0.3°C 29.3°F-1.5°C 92% 3.0 mph W4.8 kmh W 8.0 mph12.9 kmh 30.00 in1015.9 mb 0.00 in0.0 mm 0.00 in0.0 mm 0.00 in0.0 mm
04:39 AM 31.3°F-0.4°C 29.3°F-1.5°C 92% 3.0 mph W4.8 kmh W 8.0 mph12.9 kmh 29.99 in1015.6 mb 0.00 in0.0 mm 0.00 in0.0 mm 0.00 in0.0 mm
04:42 AM 31.3°F-0.4°C 29.3°F-1.5°C 92% 3.0 mph W4.8 kmh W 7.0 mph11.3 kmh 29.99 in1015.6 mb 0.00 in0.0 mm 0.00 in0.0 mm 0.00 in0.0 mm
04:45 AM 31.3°F-0.4°C 29.3°F-1.5°C 92% 3.0 mph W4.8 kmh W 7.0 mph11.3 kmh 29.99 in1015.6 mb 0.00 in0.0 mm 0.00 in0.0 mm 0.00 in0.0 mm
04:48 AM 31.3°F-0.4°C 29.1°F-1.6°C 92% 3.0 mph WSW4.8 kmh WSW 7.0 mph11.3 kmh 30.00 in1015.9 mb 0.00 in0.0 mm 0.00 in0.0 mm 0.00 in0.0 mm
04:51 AM 31.3°F-0.4°C 29.1°F-1.6°C 92% 4.0 mph WSW6.4 kmh WSW 7.0 mph11.3 kmh 30.00 in1015.9 mb 0.00 in0.0 mm 0.00 in0.0 mm 0.00 in0.0 mm
04:54 AM 31.1°F-0.5°C 29.1°F-1.6°C 92% 3.0 mph W4.8 kmh W 7.0 mph11.3 kmh 29.99 in1015.6 mb 0.00 in0.0 mm 0.00 in0.0 mm 0.00 in0.0 mm
04:57 AM 30.9°F-0.6°C 28.9°F-1.7°C 92% 3.0 mph W4.8 kmh W 7.0 mph11.3 kmh 29.99 in1015.6 mb 0.00 in0.0 mm 0.00 in0.0 mm 0.00 in0.0 mm
05:00 AM 30.9°F-0.6°C 28.9°F-1.7°C 92% 3.0 mph W4.8 kmh W 6.0 mph9.7 kmh 29.99 in1015.6 mb 0.00 in0.0 mm 0.00 in0.0 mm 0.00 in0.0 mm
05:03 AM 30.9°F-0.6°C 28.9°F-1.7°C 92% 4.0 mph WSW6.4 kmh WSW 8.0 mph12.9 kmh 29.99 in1015.6 mb 0.00 in0.0 mm 0.00 in0.0 mm 0.00 in0.0 mm
05:06 AM 30.9°F-0.6°C 28.9°F-1.7°C 92% 4.0 mph WSW6.4 kmh WSW 9.0 mph14.5 kmh 29.99 in1015.6 mb 0.00 in0.0 mm 0.00 in0.0 mm 0.00 in0.0 mm
05:09 AM 31.1°F-0.5°C 29.3°F-1.5°C 93% 5.0 mph WSW8.0 kmh WSW 9.0 mph14.5 kmh 29.99 in1015.6 mb 0.00 in0.0 mm 0.00 in0.0 mm 0.00 in0.0 mm
05:12 AM 31.3°F-0.4°C 29.5°F-1.4°C 93% 5.0 mph WSW8.0 kmh WSW 9.0 mph14.5 kmh 29.99 in1015.6 mb 0.00 in0.0 mm 0.00 in0.0 mm 0.00 in0.0 mm
05:15 AM 31.1°F-0.5°C 29.1°F-1.6°C 92% 4.0 mph WSW6.4 kmh WSW 8.0 mph12.9 kmh 29.99 in1015.6 mb 0.00 in0.0 mm 0.00 in0.0 mm 0.00 in0.0 mm
05:18 AM 30.9°F-0.6°C 28.9°F-1.7°C 92% 3.0 mph W4.8 kmh W 8.0 mph12.9 kmh 29.99 in1015.6 mb 0.00 in0.0 mm 0.00 in0.0 mm 0.00 in0.0 mm
05:21 AM 30.7°F-0.7°C 28.8°F-1.8°C 92% 3.0 mph W4.8 kmh W 6.0 mph9.7 kmh 30.00 in1015.9 mb 0.00 in0.0 mm 0.00 in0.0 mm 0.00 in0.0 mm
05:24 AM 30.7°F-0.7°C 28.6°F-1.9°C 92% 3.0 mph W4.8 kmh W 6.0 mph9.7 kmh 29.99 in1015.6 mb 0.00 in0.0 mm 0.00 in0.0 mm 0.00 in0.0 mm
05:27 AM 30.7°F-0.7°C 28.9°F-1.7°C 93% 3.0 mph W4.8 kmh W 6.0 mph9.7 kmh 29.99 in1015.6 mb 0.00 in0.0 mm 0.00 in0.0 mm 0.00 in0.0 mm
05:30 AM 30.7°F-0.7°C 28.6°F-1.9°C 92% 3.0 mph W4.8 kmh W 6.0 mph9.7 kmh 29.99 in1015.6 mb 0.00 in0.0 mm 0.00 in0.0 mm 0.00 in0.0 mm
05:33 AM 30.6°F-0.8°C 28.4°F-2.0°C 92% 3.0 mph W4.8 kmh W 6.0 mph9.7 kmh 29.99 in1015.6 mb 0.00 in0.0 mm 0.00 in0.0 mm 0.00 in0.0 mm
05:36 AM 30.4°F-0.9°C 28.4°F-2.0°C 92% 3.0 mph W4.8 kmh W 6.0 mph9.7 kmh 29.99 in1015.6 mb 0.00 in0.0 mm 0.00 in0.0 mm 0.00 in0.0 mm
05:39 AM 30.4°F-0.9°C 28.2°F-2.1°C 92% 3.0 mph W4.8 kmh W 8.0 mph12.9 kmh 29.99 in1015.6 mb 0.00 in0.0 mm 0.00 in0.0 mm 0.00 in0.0 mm
05:42 AM 30.2°F-1.0°C 28.2°F-2.1°C 92% 3.0 mph W4.8 kmh W 8.0 mph12.9 kmh 29.99 in1015.6 mb 0.00 in0.0 mm 0.00 in0.0 mm 0.00 in0.0 mm
05:45 AM 30.2°F-1.0°C 28.2°F-2.1°C 92% 3.0 mph W4.8 kmh W 8.0 mph12.9 kmh 29.99 in1015.6 mb 0.00 in0.0 mm 0.00 in0.0 mm 0.00 in0.0 mm
05:48 AM 30.4°F-0.9°C 28.6°F-1.9°C 93% 3.0 mph W4.8 kmh W 6.0 mph9.7 kmh 29.99 in1015.6 mb 0.00 in0.0 mm 0.00 in0.0 mm 0.00 in0.0 mm
05:51 AM 30.2°F-1.0°C 28.2°F-2.1°C 92% 3.0 mph W4.8 kmh W 6.0 mph9.7 kmh 29.99 in1015.6 mb 0.00 in0.0 mm 0.00 in0.0 mm 0.00 in0.0 mm
05:54 AM 30.4°F-0.9°C 28.6°F-1.9°C 93% 3.0 mph W4.8 kmh W 6.0 mph9.7 kmh 29.99 in1015.6 mb 0.00 in0.0 mm 0.00 in0.0 mm 0.00 in0.0 mm
05:57 AM 30.4°F-0.9°C 28.6°F-1.9°C 93% 3.0 mph WSW4.8 kmh WSW 6.0 mph9.7 kmh 29.99 in1015.6 mb 0.00 in0.0 mm 0.00 in0.0 mm 0.00 in0.0 mm
06:00 AM 30.4°F-0.9°C 28.6°F-1.9°C 93% 4.0 mph WSW6.4 kmh WSW 10.0 mph16.1 kmh 29.99 in1015.6 mb 0.00 in0.0 mm 0.00 in0.0 mm 0.00 in0.0 mm
06:03 AM 30.4°F-0.9°C 28.6°F-1.9°C 93% 4.0 mph W6.4 kmh W 10.0 mph16.1 kmh 29.99 in1015.6 mb 0.00 in0.0 mm 0.00 in0.0 mm 0.00 in0.0 mm
06:06 AM 30.6°F-0.8°C 28.8°F-1.8°C 93% 5.0 mph W8.0 kmh W 10.0 mph16.1 kmh 29.99 in1015.6 mb 0.00 in0.0 mm 0.00 in0.0 mm 0.00 in0.0 mm
06:09 AM 30.6°F-0.8°C 28.8°F-1.8°C 93% 5.0 mph W8.0 kmh W 10.0 mph16.1 kmh 29.99 in1015.6 mb 0.00 in0.0 mm 0.00 in0.0 mm 0.00 in0.0 mm
06:12 AM 30.7°F-0.7°C 28.9°F-1.7°C 93% 6.0 mph W9.7 kmh W 11.0 mph17.7 kmh 29.99 in1015.6 mb 0.00 in0.0 mm 0.00 in0.0 mm 0.00 in0.0 mm
06:15 AM 31.3°F-0.4°C 29.7°F-1.3°C 94% 6.0 mph W9.7 kmh W 11.0 mph17.7 kmh 29.98 in1015.2 mb 0.00 in0.0 mm 0.00 in0.0 mm 0.00 in0.0 mm
06:18 AM 31.5°F-0.3°C 30.0°F-1.1°C 94% 6.0 mph W9.7 kmh W 11.0 mph17.7 kmh 29.99 in1015.6 mb 0.00 in0.0 mm 0.00 in0.0 mm 0.00 in0.0 mm
06:21 AM 31.6°F-0.2°C 30.0°F-1.1°C 94% 5.0 mph WSW8.0 kmh WSW 10.0 mph16.1 kmh 29.98 in1015.2 mb 0.00 in0.0 mm 0.00 in0.0 mm 0.00 in0.0 mm
06:24 AM 31.8°F-0.1°C 30.2°F-1.0°C 94% 5.0 mph WSW8.0 kmh WSW 10.0 mph16.1 kmh 29.98 in1015.2 mb 0.00 in0.0 mm 0.00 in0.0 mm 0.00 in0.0 mm
06:27 AM 31.8°F-0.1°C 30.4°F-0.9°C 94% 5.0 mph WSW8.0 kmh WSW 10.0 mph16.1 kmh 29.98 in1015.2 mb 0.00 in0.0 mm 0.00 in0.0 mm 0.00 in0.0 mm
06:30 AM 31.8°F-0.1°C 30.0°F-1.1°C 93% 5.0 mph WSW8.0 kmh WSW 10.0 mph16.1 kmh 29.98 in1015.2 mb 0.00 in0.0 mm 0.00 in0.0 mm 0.00 in0.0 mm
06:33 AM 31.8°F-0.1°C 30.0°F-1.1°C 93% 5.0 mph WSW8.0 kmh WSW 10.0 mph16.1 kmh 29.98 in1015.2 mb 0.00 in0.0 mm 0.00 in0.0 mm 0.00 in0.0 mm
06:36 AM 31.8°F-0.1°C 30.0°F-1.1°C 93% 5.0 mph WSW8.0 kmh WSW 10.0 mph16.1 kmh 29.98 in1015.2 mb 0.00 in0.0 mm 0.00 in0.0 mm 0.00 in0.0 mm
06:39 AM 31.6°F-0.2°C 29.8°F-1.2°C 93% 5.0 mph WSW8.0 kmh WSW 9.0 mph14.5 kmh 29.98 in1015.2 mb 0.00 in0.0 mm 0.00 in0.0 mm 0.00 in0.0 mm
06:42 AM 31.8°F-0.1°C 30.0°F-1.1°C 93% 5.0 mph WSW8.0 kmh WSW 10.0 mph16.1 kmh 29.97 in1014.9 mb 0.00 in0.0 mm 0.00 in0.0 mm 0.00 in0.0 mm
06:45 AM 31.8°F-0.1°C 30.0°F-1.1°C 93% 6.0 mph WSW9.7 kmh WSW 11.0 mph17.7 kmh 29.97 in1014.9 mb 0.00 in0.0 mm 0.00 in0.0 mm 0.00 in0.0 mm
06:48 AM 31.8°F-0.1°C 30.0°F-1.1°C 93% 6.0 mph WSW9.7 kmh WSW 11.0 mph17.7 kmh 29.97 in1014.9 mb 0.00 in0.0 mm 0.00 in0.0 mm 0.00 in0.0 mm
06:51 AM 32.0°F0.0°C 30.2°F-1.0°C 93% 7.0 mph WSW11.3 kmh WSW 11.0 mph17.7 kmh 29.97 in1014.9 mb 0.00 in0.0 mm 0.00 in0.0 mm 0.00 in0.0 mm
06:54 AM 32.2°F0.1°C 30.4°F-0.9°C 93% 7.0 mph WSW11.3 kmh WSW 13.0 mph20.9 kmh 29.97 in1014.9 mb 0.00 in0.0 mm 0.00 in0.0 mm 0.00 in0.0 mm
06:57 AM 32.2°F0.1°C 30.4°F-0.9°C 93% 7.0 mph WSW11.3 kmh WSW 13.0 mph20.9 kmh 29.97 in1014.9 mb 0.00 in0.0 mm 0.00 in0.0 mm 0.00 in0.0 mm
07:00 AM 32.2°F0.1°C 30.4°F-0.9°C 93% 7.0 mph WSW11.3 kmh WSW 13.0 mph20.9 kmh 29.97 in1014.9 mb 0.00 in0.0 mm 0.00 in0.0 mm 0.00 in0.0 mm
07:03 AM 32.2°F0.1°C 30.4°F-0.9°C 93% 7.0 mph WSW11.3 kmh WSW 13.0 mph20.9 kmh 29.97 in1014.9 mb 0.00 in0.0 mm 0.00 in0.0 mm 0.00 in0.0 mm
07:06 AM 32.2°F0.1°C 30.4°F-0.9°C 93% 6.0 mph WSW9.7 kmh WSW 11.0 mph17.7 kmh 29.97 in1014.9 mb 0.00 in0.0 mm 0.00 in0.0 mm 0.00 in0.0 mm
07:09 AM 32.4°F0.2°C 30.6°F-0.8°C 93% 6.0 mph WSW9.7 kmh WSW 11.0 mph17.7 kmh 29.97 in1014.9 mb 0.00 in0.0 mm 0.00 in0.0 mm 0.00 in0.0 mm
07:12 AM 32.4°F0.2°C 30.6°F-0.8°C 93% 6.0 mph WSW9.7 kmh WSW 11.0 mph17.7 kmh 29.97 in1014.9 mb 0.00 in0.0 mm 0.00 in0.0 mm 0.00 in0.0 mm
07:15 AM 32.4°F0.2°C 30.6°F-0.8°C 93% 5.0 mph WSW8.0 kmh WSW 10.0 mph16.1 kmh 29.97 in1014.9 mb 0.00 in0.0 mm 0.00 in0.0 mm 0.00 in0.0 mm
07:18 AM 32.4°F0.2°C 30.6°F-0.8°C 93% 5.0 mph WSW8.0 kmh WSW 10.0 mph16.1 kmh 29.96 in1014.6 mb 0.00 in0.0 mm 0.00 in0.0 mm 0.00 in0.0 mm
07:21 AM 32.4°F0.2°C 30.6°F-0.8°C 93% 5.0 mph W8.0 kmh W 10.0 mph16.1 kmh 29.97 in1014.9 mb 0.00 in0.0 mm 0.00 in0.0 mm 0.00 in0.0 mm
07:24 AM 32.4°F0.2°C 30.6°F-0.8°C 93% 5.0 mph W8.0 kmh W 11.0 mph17.7 kmh 29.97 in1014.9 mb 0.00 in0.0 mm 0.00 in0.0 mm 0.00 in0.0 mm
07:27 AM 32.2°F0.1°C 30.4°F-0.9°C 93% 5.0 mph W8.0 kmh W 11.0 mph17.7 kmh 29.97 in1014.9 mb 0.00 in0.0 mm 0.00 in0.0 mm 0.00 in0.0 mm
07:30 AM 32.2°F0.1°C 30.4°F-0.9°C 93% 5.0 mph W8.0 kmh W 11.0 mph17.7 kmh 29.97 in1014.9 mb 0.00 in0.0 mm 0.00 in0.0 mm 0.00 in0.0 mm
07:33 AM 32.2°F0.1°C 30.4°F-0.9°C 93% 5.0 mph W8.0 kmh W 11.0 mph17.7 kmh 29.97 in1014.9 mb 0.00 in0.0 mm 0.00 in0.0 mm 0.00 in0.0 mm
07:36 AM 32.2°F0.1°C 30.4°F-0.9°C 93% 5.0 mph W8.0 kmh W 10.0 mph16.1 kmh 29.97 in1014.9 mb 0.00 in0.0 mm 0.00 in0.0 mm 0.00 in0.0 mm
07:39 AM 32.2°F0.1°C 30.4°F-0.9°C 93% 5.0 mph W8.0 kmh W 9.0 mph14.5 kmh 29.97 in1014.9 mb 0.00 in0.0 mm 0.00 in0.0 mm 0.00 in0.0 mm
07:42 AM 32.2°F0.1°C 30.4°F-0.9°C 93% 5.0 mph W8.0 kmh W 9.0 mph14.5 kmh 29.97 in1014.9 mb 0.00 in0.0 mm 0.00 in0.0 mm 0.00 in0.0 mm
07:45 AM 32.2°F0.1°C 30.4°F-0.9°C 93% 5.0 mph W8.0 kmh W 8.0 mph12.9 kmh 29.97 in1014.9 mb 0.00 in0.0 mm 0.00 in0.0 mm 0.00 in0.0 mm
07:48 AM 32.2°F0.1°C 30.4°F-0.9°C 93% 5.0 mph W8.0 kmh W 8.0 mph12.9 kmh 29.97 in1014.9 mb 0.00 in0.0 mm 0.00 in0.0 mm 0.00 in0.0 mm
07:51 AM 32.2°F0.1°C 30.4°F-0.9°C 93% 5.0 mph W8.0 kmh W 8.0 mph12.9 kmh 29.97 in1014.9 mb 0.00 in0.0 mm 0.00 in0.0 mm 0.00 in0.0 mm
07:54 AM 32.2°F0.1°C 30.4°F-0.9°C 93% 5.0 mph W8.0 kmh W 9.0 mph14.5 kmh 29.97 in1014.9 mb 0.00 in0.0 mm 0.00 in0.0 mm 0.00 in0.0 mm
07:57 AM 32.2°F0.1°C 30.4°F-0.9°C 93% 4.0 mph W6.4 kmh W 9.0 mph14.5 kmh 29.97 in1014.9 mb 0.00 in0.0 mm 0.00 in0.0 mm 0.00 in0.0 mm
08:00 AM 32.2°F0.1°C 30.4°F-0.9°C 93% 4.0 mph W6.4 kmh W 9.0 mph14.5 kmh 29.97 in1014.9 mb 0.00 in0.0 mm 0.00 in0.0 mm 0.00 in0.0 mm
08:03 AM 32.2°F0.1°C 30.4°F-0.9°C 93% 3.0 mph W4.8 kmh W 9.0 mph14.5 kmh 29.97 in1014.9 mb 0.00 in0.0 mm 0.00 in0.0 mm 0.00 in0.0 mm
08:06 AM 32.2°F0.1°C 30.4°F-0.9°C 93% 3.0 mph W4.8 kmh W 7.0 mph11.3 kmh 29.96 in1014.6 mb 0.00 in0.0 mm 0.00 in0.0 mm 0.00 in0.0 mm
08:09 AM 32.2°F0.1°C 30.4°F-0.9°C 93% 3.0 mph W4.8 kmh W 7.0 mph11.3 kmh 29.96 in1014.6 mb 0.00 in0.0 mm 0.00 in0.0 mm 0.00 in0.0 mm
08:12 AM 32.2°F0.1°C 30.4°F-0.9°C 93% 3.0 mph W4.8 kmh W 7.0 mph11.3 kmh 29.96 in1014.6 mb 0.00 in0.0 mm 0.00 in0.0 mm 0.00 in0.0 mm
08:15 AM 32.0°F0.0°C 30.2°F-1.0°C 93% 3.0 mph WSW4.8 kmh WSW 6.0 mph9.7 kmh 29.96 in1014.6 mb 0.00 in0.0 mm 0.00 in0.0 mm 0.00 in0.0 mm
08:18 AM 32.2°F0.1°C 30.4°F-0.9°C 93% 3.0 mph WSW4.8 kmh WSW 6.0 mph9.7 kmh 29.96 in1014.6 mb 0.00 in0.0 mm 0.00 in0.0 mm 0.00 in0.0 mm
08:21 AM 32.2°F0.1°C 30.4°F-0.9°C 93% 3.0 mph WSW4.8 kmh WSW 6.0 mph9.7 kmh 29.96 in1014.6 mb 0.00 in0.0 mm 0.00 in0.0 mm 0.00 in0.0 mm
08:24 AM 32.4°F0.2°C 30.6°F-0.8°C 93% 3.0 mph WSW4.8 kmh WSW 4.0 mph6.4 kmh 29.96 in1014.6 mb 0.00 in0.0 mm 0.00 in0.0 mm 0.00 in0.0 mm
08:27 AM 32.4°F0.2°C 30.9°F-0.6°C 94% 3.0 mph WSW4.8 kmh WSW 4.0 mph6.4 kmh 29.96 in1014.6 mb 0.00 in0.0 mm 0.00 in0.0 mm 0.00 in0.0 mm
08:30 AM 32.4°F0.2°C 30.6°F-0.8°C 93% 2.0 mph W3.2 kmh W 4.0 mph6.4 kmh 29.96 in1014.6 mb 0.00 in0.0 mm 0.00 in0.0 mm 0.00 in0.0 mm
08:33 AM 32.5°F0.3°C 30.9°F-0.6°C 94% 3.0 mph W4.8 kmh W 7.0 mph11.3 kmh 29.96 in1014.6 mb 0.00 in0.0 mm 0.00 in0.0 mm 0.00 in0.0 mm
08:36 AM 32.7°F0.4°C 31.1°F-0.5°C 94% 2.0 mph W3.2 kmh W 7.0 mph11.3 kmh 29.96 in1014.6 mb 0.00 in0.0 mm 0.00 in0.0 mm 0.00 in0.0 mm
08:39 AM 32.7°F0.4°C 31.3°F-0.4°C 94% 3.0 mph W4.8 kmh W 7.0 mph11.3 kmh 29.96 in1014.6 mb 0.00 in0.0 mm 0.00 in0.0 mm 0.00 in0.0 mm
08:42 AM 32.9°F0.5°C 31.3°F-0.4°C 94% 3.0 mph WSW4.8 kmh WSW 6.0 mph9.7 kmh 29.96 in1014.6 mb 0.00 in0.0 mm 0.00 in0.0 mm 0.00 in0.0 mm
08:45 AM 33.1°F0.6°C 31.5°F-0.3°C 94% 3.0 mph WSW4.8 kmh WSW 6.0 mph9.7 kmh 29.96 in1014.6 mb 0.00 in0.0 mm 0.00 in0.0 mm 0.00 in0.0 mm
08:48 AM 33.1°F0.6°C 31.6°F-0.2°C 94% 3.0 mph WSW4.8 kmh WSW 6.0 mph9.7 kmh 29.96 in1014.6 mb 0.00 in0.0 mm 0.00 in0.0 mm 0.00 in0.0 mm
08:51 AM 33.3°F0.7°C 31.8°F-0.1°C 94% 3.0 mph WSW4.8 kmh WSW 6.0 mph9.7 kmh 29.96 in1014.6 mb 0.00 in0.0 mm 0.00 in0.0 mm 0.00 in0.0 mm
08:54 AM 33.4°F0.8°C 31.8°F-0.1°C 94% 3.0 mph WSW4.8 kmh WSW 6.0 mph9.7 kmh 29.95 in1014.2 mb 0.00 in0.0 mm 0.00 in0.0 mm 0.00 in0.0 mm
08:57 AM 33.4°F0.8°C 31.8°F-0.1°C 94% 3.0 mph WSW4.8 kmh WSW 6.0 mph9.7 kmh 29.96 in1014.6 mb 0.00 in0.0 mm 0.00 in0.0 mm 0.00 in0.0 mm
09:00 AM 33.4°F0.8°C 32.0°F0.0°C 94% 3.0 mph WSW4.8 kmh WSW 6.0 mph9.7 kmh 29.96 in1014.6 mb 0.00 in0.0 mm 0.00 in0.0 mm 0.00 in0.0 mm
09:03 AM 33.6°F0.9°C 32.0°F0.0°C 94% 3.0 mph WSW4.8 kmh WSW 5.0 mph8.0 kmh 29.96 in1014.6 mb 0.00 in0.0 mm 0.00 in0.0 mm 0.00 in0.0 mm
09:06 AM 33.6°F0.9°C 32.2°F0.1°C 94% 3.0 mph WSW4.8 kmh WSW 7.0 mph11.3 kmh 29.95 in1014.2 mb 0.00 in0.0 mm 0.00 in0.0 mm 0.00 in0.0 mm
09:09 AM 34.0°F1.1°C 32.4°F0.2°C 94% 3.0 mph W4.8 kmh W 7.0 mph11.3 kmh 29.95 in1014.2 mb 0.00 in0.0 mm 0.00 in0.0 mm 0.00 in0.0 mm
09:12 AM 34.0°F1.1°C 32.2°F0.1°C 93% 2.0 mph W3.2 kmh W 7.0 mph11.3 kmh 29.95 in1014.2 mb 0.00 in0.0 mm 0.00 in0.0 mm 0.00 in0.0 mm
09:15 AM 34.2°F1.2°C 32.4°F0.2°C 93% 2.0 mph W3.2 kmh W 7.0 mph11.3 kmh 29.95 in1014.2 mb 0.00 in0.0 mm 0.00 in0.0 mm 0.00 in0.0 mm
09:18 AM 34.2°F1.2°C 32.4°F0.2°C 93% 2.0 mph WSW3.2 kmh WSW 7.0 mph11.3 kmh 29.95 in1014.2 mb 0.00 in0.0 mm 0.00 in0.0 mm 0.00 in0.0 mm
09:21 AM 34.2°F1.2°C 32.4°F0.2°C 93% 2.0 mph WSW3.2 kmh WSW 7.0 mph11.3 kmh 29.95 in1014.2 mb 0.00 in0.0 mm 0.00 in0.0 mm 0.00 in0.0 mm
09:24 AM 34.3°F1.3°C 32.7°F0.4°C 94% 2.0 mph WSW3.2 kmh WSW 7.0 mph11.3 kmh 29.95 in1014.2 mb 0.00 in0.0 mm 0.00 in0.0 mm 0.00 in0.0 mm
09:27 AM 34.5°F1.4°C 32.7°F0.4°C 93% 3.0 mph SW4.8 kmh SW 7.0 mph11.3 kmh 29.95 in1014.2 mb 0.00 in0.0 mm 0.00 in0.0 mm 0.00 in0.0 mm
09:30 AM 34.5°F1.4°C 32.7°F0.4°C 93% 2.0 mph SW3.2 kmh SW 5.0 mph8.0 kmh 29.95 in1014.2 mb 0.00 in0.0 mm 0.00 in0.0 mm 0.00 in0.0 mm
09:33 AM 34.5°F1.4°C 32.7°F0.4°C 93% 3.0 mph SW4.8 kmh SW 5.0 mph8.0 kmh 29.95 in1014.2 mb 0.00 in0.0 mm 0.00 in0.0 mm 0.00 in0.0 mm
09:36 AM 34.5°F1.4°C 32.7°F0.4°C 93% 2.0 mph SW3.2 kmh SW 5.0 mph8.0 kmh 29.95 in1014.2 mb 0.00 in0.0 mm 0.00 in0.0 mm 0.00 in0.0 mm
09:39 AM 34.5°F1.4°C 32.7°F0.4°C 93% 2.0 mph SW3.2 kmh SW 5.0 mph8.0 kmh 29.95 in1014.2 mb 0.00 in0.0 mm 0.00 in0.0 mm 0.00 in0.0 mm
09:42 AM 34.5°F1.4°C 32.7°F0.4°C 93% 2.0 mph SW3.2 kmh SW 4.0 mph6.4 kmh 29.94 in1013.9 mb 0.00 in0.0 mm 0.00 in0.0 mm 0.00 in0.0 mm
09:45 AM 34.3°F1.3°C 32.5°F0.3°C 93% 2.0 mph SSW3.2 kmh SSW 5.0 mph8.0 kmh 29.94 in1013.9 mb 0.00 in0.0 mm 0.00 in0.0 mm 0.00 in0.0 mm
09:48 AM 34.5°F1.4°C 32.7°F0.4°C 93% 3.0 mph SSW4.8 kmh SSW 5.0 mph8.0 kmh 29.94 in1013.9 mb 0.00 in0.0 mm 0.00 in0.0 mm 0.00 in0.0 mm
09:51 AM 34.5°F1.4°C 32.7°F0.4°C 93% 3.0 mph SSW4.8 kmh SSW 5.0 mph8.0 kmh 29.94 in1013.9 mb 0.00 in0.0 mm 0.00 in0.0 mm 0.00 in0.0 mm
09:54 AM 34.5°F1.4°C 32.7°F0.4°C 93% 3.0 mph SSW4.8 kmh SSW 5.0 mph8.0 kmh 29.94 in1013.9 mb 0.00 in0.0 mm 0.00 in0.0 mm 0.00 in0.0 mm
09:57 AM 34.7°F1.5°C 32.9°F0.5°C 93% 3.0 mph SW4.8 kmh SW 5.0 mph8.0 kmh 29.94 in1013.9 mb 0.00 in0.0 mm 0.00 in0.0 mm 0.00 in0.0 mm
10:00 AM 34.9°F1.6°C 32.9°F0.5°C 93% 3.0 mph SW4.8 kmh SW 5.0 mph8.0 kmh 29.94 in1013.9 mb 0.00 in0.0 mm 0.00 in0.0 mm 0.00 in0.0 mm
10:03 AM 34.9°F1.6°C 33.1°F0.6°C 93% 3.0 mph SSW4.8 kmh SSW 5.0 mph8.0 kmh 29.94 in1013.9 mb 0.00 in0.0 mm 0.00 in0.0 mm 0.00 in0.0 mm
10:06 AM 34.9°F1.6°C 33.1°F0.6°C 93% 3.0 mph SSW4.8 kmh SSW 5.0 mph8.0 kmh 29.94 in1013.9 mb 0.00 in0.0 mm 0.00 in0.0 mm 0.00 in0.0 mm
10:09 AM 35.1°F1.7°C 33.3°F0.7°C 93% 3.0 mph SW4.8 kmh SW 5.0 mph8.0 kmh 29.94 in1013.9 mb 0.00 in0.0 mm 0.00 in0.0 mm 0.00 in0.0 mm
10:12 AM 35.2°F1.8°C 33.4°F0.8°C 93% 3.0 mph SW4.8 kmh SW 6.0 mph9.7 kmh 29.93 in1013.5 mb 0.00 in0.0 mm 0.00 in0.0 mm 0.00 in0.0 mm
10:15 AM 35.4°F1.9°C 33.6°F0.9°C 93% 3.0 mph SW4.8 kmh SW 6.0 mph9.7 kmh 29.93 in1013.5 mb 0.00 in0.0 mm 0.00 in0.0 mm 0.00 in0.0 mm
10:18 AM 35.4°F1.9°C 33.6°F0.9°C 93% 3.0 mph SW4.8 kmh SW 6.0 mph9.7 kmh 29.93 in1013.5 mb 0.00 in0.0 mm 0.00 in0.0 mm 0.00 in0.0 mm
10:21 AM 35.8°F2.1°C 33.8°F1.0°C 93% 3.0 mph SW4.8 kmh SW 6.0 mph9.7 kmh 29.93 in1013.5 mb 0.00 in0.0 mm 0.00 in0.0 mm 0.00 in0.0 mm
10:24 AM 36.0°F2.2°C 34.2°F1.2°C 93% 3.0 mph SW4.8 kmh SW 6.0 mph9.7 kmh 29.93 in1013.5 mb 0.00 in0.0 mm 0.00 in0.0 mm 0.00 in0.0 mm
10:27 AM 36.1°F2.3°C 34.3°F1.3°C 93% 3.0 mph SSW4.8 kmh SSW 6.0 mph9.7 kmh 29.93 in1013.5 mb 0.00 in0.0 mm 0.00 in0.0 mm 0.00 in0.0 mm
10:30 AM 36.3°F2.4°C 34.5°F1.4°C 93% 3.0 mph SW4.8 kmh SW 7.0 mph11.3 kmh 29.93 in1013.5 mb 0.00 in0.0 mm 0.00 in0.0 mm 0.00 in0.0 mm
10:33 AM 36.7°F2.6°C 34.7°F1.5°C 93% 3.0 mph SW4.8 kmh SW 7.0 mph11.3 kmh 29.93 in1013.5 mb 0.00 in0.0 mm 0.00 in0.0 mm 0.00 in0.0 mm
10:36 AM 36.9°F2.7°C 35.1°F1.7°C 93% 4.0 mph SW6.4 kmh SW 8.0 mph12.9 kmh 29.93 in1013.5 mb 0.01 in0.3 mm 0.20 in5.1 mm 0.01 in0.3 mm
10:39 AM 37.2°F2.9°C 35.4°F1.9°C 93% 4.0 mph SW6.4 kmh SW 8.0 mph12.9 kmh 29.93 in1013.5 mb 0.01 in0.3 mm 0.00 in0.0 mm 0.01 in0.3 mm
10:42 AM 37.4°F3.0°C 35.6°F2.0°C 93% 4.0 mph SW6.4 kmh SW 8.0 mph12.9 kmh 29.93 in1013.5 mb 0.02 in0.5 mm 0.20 in5.1 mm 0.02 in0.5 mm
10:45 AM 37.8°F3.2°C 35.6°F2.0°C 92% 4.0 mph SW6.4 kmh SW 7.0 mph11.3 kmh 29.92 in1013.2 mb 0.02 in0.5 mm 0.00 in0.0 mm 0.02 in0.5 mm
10:48 AM 37.8°F3.2°C 35.6°F2.0°C 92% 4.0 mph SW6.4 kmh SW 7.0 mph11.3 kmh 29.92 in1013.2 mb 0.02 in0.5 mm 0.00 in0.0 mm 0.02 in0.5 mm
10:51 AM 38.1°F3.4°C 36.0°F2.2°C 92% 4.0 mph SSW6.4 kmh SSW 8.0 mph12.9 kmh 29.92 in1013.2 mb 0.02 in0.5 mm 0.00 in0.0 mm 0.02 in0.5 mm
10:54 AM 38.3°F3.5°C 36.1°F2.3°C 92% 4.0 mph SSW6.4 kmh SSW 10.0 mph16.1 kmh 29.92 in1013.2 mb 0.02 in0.5 mm 0.00 in0.0 mm 0.02 in0.5 mm
10:57 AM 38.5°F3.6°C 36.1°F2.3°C 91% 5.0 mph SSW8.0 kmh SSW 10.0 mph16.1 kmh 29.92 in1013.2 mb 0.02 in0.5 mm 0.00 in0.0 mm 0.02 in0.5 mm
11:00 AM 38.8°F3.8°C 36.3°F2.4°C 91% 5.0 mph SSW8.0 kmh SSW 10.0 mph16.1 kmh 29.92 in1013.2 mb 0.02 in0.5 mm 0.00 in0.0 mm 0.02 in0.5 mm
11:03 AM 39.0°F3.9°C 36.7°F2.6°C 91% 5.0 mph SSW8.0 kmh SSW 10.0 mph16.1 kmh 29.92 in1013.2 mb 0.02 in0.5 mm 0.00 in0.0 mm 0.02 in0.5 mm
11:06 AM 39.2°F4.0°C 36.9°F2.7°C 91% 5.0 mph SSW8.0 kmh SSW 10.0 mph16.1 kmh 29.92 in1013.2 mb 0.02 in0.5 mm 0.00 in0.0 mm 0.02 in0.5 mm
11:09 AM 39.4°F4.1°C 37.0°F2.8°C 91% 5.0 mph S8.0 kmh S 10.0 mph16.1 kmh 29.92 in1013.2 mb 0.02 in0.5 mm 0.00 in0.0 mm 0.02 in0.5 mm
11:12 AM 39.6°F4.2°C 36.9°F2.7°C 90% 5.0 mph SSW8.0 kmh SSW 10.0 mph16.1 kmh 29.92 in1013.2 mb 0.02 in0.5 mm 0.00 in0.0 mm 0.02 in0.5 mm
11:15 AM 39.7°F4.3°C 37.0°F2.8°C 90% 4.0 mph SSW6.4 kmh SSW 9.0 mph14.5 kmh 29.92 in1013.2 mb 0.02 in0.5 mm 0.00 in0.0 mm 0.02 in0.5 mm
11:18 AM 40.1°F4.5°C 37.4°F3.0°C 90% 4.0 mph SSW6.4 kmh SSW 9.0 mph14.5 kmh 29.92 in1013.2 mb 0.02 in0.5 mm 0.00 in0.0 mm 0.02 in0.5 mm
11:21 AM 40.5°F4.7°C 37.8°F3.2°C 90% 4.0 mph SSW6.4 kmh SSW 7.0 mph11.3 kmh 29.91 in1012.9 mb 0.02 in0.5 mm 0.00 in0.0 mm 0.02 in0.5 mm
11:24 AM 40.8°F4.9°C 38.1°F3.4°C 90% 4.0 mph SSW6.4 kmh SSW 9.0 mph14.5 kmh 29.91 in1012.9 mb 0.02 in0.5 mm 0.00 in0.0 mm 0.02 in0.5 mm
11:27 AM 40.8°F4.9°C 37.9°F3.3°C 89% 4.0 mph SSW6.4 kmh SSW 9.0 mph14.5 kmh 29.91 in1012.9 mb 0.02 in0.5 mm 0.00 in0.0 mm 0.02 in0.5 mm
11:30 AM 41.0°F5.0°C 37.9°F3.3°C 89% 4.0 mph SSW6.4 kmh SSW 9.0 mph14.5 kmh 29.91 in1012.9 mb 0.02 in0.5 mm 0.00 in0.0 mm 0.02 in0.5 mm
11:33 AM 41.0°F5.0°C 37.8°F3.2°C 88% 4.0 mph SW6.4 kmh SW 8.0 mph12.9 kmh 29.91 in1012.9 mb 0.02 in0.5 mm 0.00 in0.0 mm 0.02 in0.5 mm
11:36 AM 41.0°F5.0°C 37.9°F3.3°C 89% 4.0 mph SW6.4 kmh SW 11.0 mph17.7 kmh 29.91 in1012.9 mb 0.01 in0.3 mm 0.00 in0.0 mm 0.02 in0.5 mm
11:39 AM 41.2°F5.1°C 37.9°F3.3°C 88% 5.0 mph SW8.0 kmh SW 12.0 mph19.3 kmh 29.90 in1012.5 mb 0.01 in0.3 mm 0.00 in0.0 mm 0.02 in0.5 mm
11:42 AM 41.2°F5.1°C 37.9°F3.3°C 88% 6.0 mph SW9.7 kmh SW 12.0 mph19.3 kmh 29.90 in1012.5 mb 0.00 in0.0 mm 0.00 in0.0 mm 0.02 in0.5 mm
11:45 AM 41.0°F5.0°C 37.4°F3.0°C 87% 7.0 mph SW11.3 kmh SW 14.0 mph22.5 kmh 29.90 in1012.5 mb 0.00 in0.0 mm 0.00 in0.0 mm 0.02 in0.5 mm
11:48 AM 40.8°F4.9°C 37.2°F2.9°C 87% 6.0 mph SW9.7 kmh SW 14.0 mph22.5 kmh 29.89 in1012.2 mb 0.00 in0.0 mm 0.00 in0.0 mm 0.02 in0.5 mm
11:51 AM 40.6°F4.8°C 37.0°F2.8°C 87% 6.0 mph SW9.7 kmh SW 14.0 mph22.5 kmh 29.89 in1012.2 mb 0.00 in0.0 mm 0.00 in0.0 mm 0.02 in0.5 mm
11:54 AM 40.6°F4.8°C 37.2°F2.9°C 87% 6.0 mph SW9.7 kmh SW 13.0 mph20.9 kmh 29.89 in1012.2 mb 0.00 in0.0 mm 0.00 in0.0 mm 0.02 in0.5 mm
11:57 AM 41.0°F5.0°C 37.2°F2.9°C 86% 6.0 mph SW9.7 kmh SW 13.0 mph20.9 kmh 29.89 in1012.2 mb 0.00 in0.0 mm 0.00 in0.0 mm 0.02 in0.5 mm
12:00 PM 41.4°F5.2°C 37.4°F3.0°C 86% 6.0 mph SW9.7 kmh SW 13.0 mph20.9 kmh 29.88 in1011.9 mb 0.00 in0.0 mm 0.00 in0.0 mm 0.02 in0.5 mm
12:03 PM 41.4°F5.2°C 37.2°F2.9°C 85% 6.0 mph SW9.7 kmh SW 12.0 mph19.3 kmh 29.88 in1011.9 mb 0.00 in0.0 mm 0.00 in0.0 mm 0.02 in0.5 mm
12:06 PM 41.5°F5.3°C 37.6°F3.1°C 86% 6.0 mph SW9.7 kmh SW 12.0 mph19.3 kmh 29.88 in1011.9 mb 0.00 in0.0 mm 0.00 in0.0 mm 0.02 in0.5 mm
12:09 PM 41.5°F5.3°C 37.4°F3.0°C 85% 5.0 mph SSW8.0 kmh SSW 12.0 mph19.3 kmh 29.88 in1011.9 mb 0.00 in0.0 mm 0.00 in0.0 mm 0.02 in0.5 mm
12:12 PM 41.7°F5.4°C 37.6°F3.1°C 85% 5.0 mph SW8.0 kmh SW 12.0 mph19.3 kmh 29.87 in1011.5 mb 0.00 in0.0 mm 0.00 in0.0 mm 0.02 in0.5 mm
12:15 PM 42.1°F5.6°C 37.8°F3.2°C 85% 5.0 mph SSW8.0 kmh SSW 10.0 mph16.1 kmh 29.87 in1011.5 mb 0.00 in0.0 mm 0.00 in0.0 mm 0.02 in0.5 mm
12:18 PM 42.1°F5.6°C 38.3°F3.5°C 86% 5.0 mph SSW8.0 kmh SSW 9.0 mph14.5 kmh 29.87 in1011.5 mb 0.00 in0.0 mm 0.00 in0.0 mm 0.02 in0.5 mm
12:21 PM 42.3°F5.7°C 37.9°F3.3°C 85% 5.0 mph SSW8.0 kmh SSW 9.0 mph14.5 kmh 29.86 in1011.2 mb 0.00 in0.0 mm 0.00 in0.0 mm 0.02 in0.5 mm
12:24 PM 42.3°F5.7°C 38.5°F3.6°C 86% 5.0 mph SSW8.0 kmh SSW 8.0 mph12.9 kmh 29.86 in1011.2 mb 0.00 in0.0 mm 0.00 in0.0 mm 0.02 in0.5 mm
12:27 PM 42.4°F5.8°C 38.5°F3.6°C 86% 5.0 mph S8.0 kmh S 8.0 mph12.9 kmh 29.86 in1011.2 mb 0.00 in0.0 mm 0.00 in0.0 mm 0.02 in0.5 mm
12:30 PM 42.6°F5.9°C 38.7°F3.7°C 86% 5.0 mph S8.0 kmh S 8.0 mph12.9 kmh 29.86 in1011.2 mb 0.00 in0.0 mm 0.00 in0.0 mm 0.02 in0.5 mm
12:33 PM 42.8°F6.0°C 38.8°F3.8°C 86% 5.0 mph SSW8.0 kmh SSW 8.0 mph12.9 kmh 29.85 in1010.8 mb 0.00 in0.0 mm 0.00 in0.0 mm 0.02 in0.5 mm
12:36 PM 43.0°F6.1°C 38.7°F3.7°C 85% 5.0 mph SSW8.0 kmh SSW 8.0 mph12.9 kmh 29.85 in1010.8 mb 0.00 in0.0 mm 0.00 in0.0 mm 0.02 in0.5 mm
12:39 PM 43.0°F6.1°C 39.0°F3.9°C 86% 5.0 mph SSW8.0 kmh SSW 8.0 mph12.9 kmh 29.85 in1010.8 mb 0.00 in0.0 mm 0.00 in0.0 mm 0.02 in0.5 mm
12:42 PM 43.3°F6.3°C 39.6°F4.2°C 86% 5.0 mph SW8.0 kmh SW 9.0 mph14.5 kmh 29.85 in1010.8 mb 0.00 in0.0 mm 0.00 in0.0 mm 0.02 in0.5 mm
12:45 PM 43.7°F6.5°C 39.7°F4.3°C 86% 5.0 mph SW8.0 kmh SW 9.0 mph14.5 kmh 29.84 in1010.5 mb 0.00 in0.0 mm 0.00 in0.0 mm 0.02 in0.5 mm
12:48 PM 44.1°F6.7°C 40.1°F4.5°C 86% 5.0 mph SW8.0 kmh SW 9.0 mph14.5 kmh 29.84 in1010.5 mb 0.00 in0.0 mm 0.00 in0.0 mm 0.02 in0.5 mm
12:51 PM 44.2°F6.8°C 40.3°F4.6°C 86% 5.0 mph SW8.0 kmh SW 11.0 mph17.7 kmh 29.84 in1010.5 mb 0.00 in0.0 mm 0.00 in0.0 mm 0.02 in0.5 mm
12:54 PM 44.2°F6.8°C 40.1°F4.5°C 85% 5.0 mph SW8.0 kmh SW 11.0 mph17.7 kmh 29.84 in1010.5 mb 0.00 in0.0 mm 0.00 in0.0 mm 0.02 in0.5 mm
12:57 PM 44.2°F6.8°C 39.7°F4.3°C 84% 5.0 mph SW8.0 kmh SW 11.0 mph17.7 kmh 29.84 in1010.5 mb 0.00 in0.0 mm 0.00 in0.0 mm 0.02 in0.5 mm
01:00 PM 44.2°F6.8°C 39.4°F4.1°C 83% 5.0 mph SSW8.0 kmh SSW 10.0 mph16.1 kmh 29.83 in1010.2 mb 0.00 in0.0 mm 0.00 in0.0 mm 0.02 in0.5 mm
01:03 PM 44.1°F6.7°C 39.0°F3.9°C 82% 6.0 mph SSW9.7 kmh SSW 16.0 mph25.7 kmh 29.83 in1010.2 mb 0.00 in0.0 mm 0.00 in0.0 mm 0.02 in0.5 mm
01:06 PM 44.2°F6.8°C 39.0°F3.9°C 82% 6.0 mph SSW9.7 kmh SSW 16.0 mph25.7 kmh 29.83 in1010.2 mb 0.00 in0.0 mm 0.00 in0.0 mm 0.02 in0.5 mm
01:09 PM 44.4°F6.9°C 39.0°F3.9°C 81% 7.0 mph SW11.3 kmh SW 16.0 mph25.7 kmh 29.83 in1010.2 mb 0.00 in0.0 mm 0.00 in0.0 mm 0.02 in0.5 mm
01:12 PM 44.8°F7.1°C 39.0°F3.9°C 80% 7.0 mph SSW11.3 kmh SSW 15.0 mph24.1 kmh 29.82 in1009.8 mb 0.00 in0.0 mm 0.00 in0.0 mm 0.02 in0.5 mm
01:15 PM 44.8°F7.1°C 39.0°F3.9°C 80% 9.0 mph SSW14.5 kmh SSW 20.0 mph32.2 kmh 29.82 in1009.8 mb 0.00 in0.0 mm 0.00 in0.0 mm 0.02 in0.5 mm
01:18 PM 44.8°F7.1°C 37.9°F3.3°C 77% 10.0 mph SSW16.1 kmh SSW 24.0 mph38.6 kmh 29.82 in1009.8 mb 0.00 in0.0 mm 0.00 in0.0 mm 0.02 in0.5 mm
01:21 PM 44.4°F6.9°C 37.4°F3.0°C 76% 11.0 mph SSW17.7 kmh SSW 24.0 mph38.6 kmh 29.82 in1009.8 mb 0.00 in0.0 mm 0.00 in0.0 mm 0.02 in0.5 mm
01:24 PM 44.4°F6.9°C 37.2°F2.9°C 76% 12.0 mph SSW19.3 kmh SSW 25.0 mph40.2 kmh 29.82 in1009.8 mb 0.00 in0.0 mm 0.00 in0.0 mm 0.02 in0.5 mm
01:27 PM 44.4°F6.9°C 37.4°F3.0°C 76% 11.0 mph SW17.7 kmh SW 25.0 mph40.2 kmh 29.81 in1009.5 mb 0.00 in0.0 mm 0.00 in0.0 mm 0.02 in0.5 mm
01:30 PM 44.4°F6.9°C 37.0°F2.8°C 75% 11.0 mph SW17.7 kmh SW 25.0 mph40.2 kmh 29.81 in1009.5 mb 0.00 in0.0 mm 0.00 in0.0 mm 0.02 in0.5 mm
01:33 PM 44.4°F6.9°C 37.0°F2.8°C 75% 10.0 mph SW16.1 kmh SW 19.0 mph30.6 kmh 29.81 in1009.5 mb 0.00 in0.0 mm 0.00 in0.0 mm 0.02 in0.5 mm
01:36 PM 44.6°F7.0°C 37.2°F2.9°C 75% 10.0 mph SW16.1 kmh SW 19.0 mph30.6 kmh 29.80 in1009.1 mb 0.00 in0.0 mm 0.00 in0.0 mm 0.02 in0.5 mm
01:39 PM 44.4°F6.9°C 37.0°F2.8°C 75% 10.0 mph SW16.1 kmh SW 21.0 mph33.8 kmh 29.80 in1009.1 mb 0.00 in0.0 mm 0.00 in0.0 mm 0.02 in0.5 mm
01:42 PM 44.4°F6.9°C 37.0°F2.8°C 75% 10.0 mph SW16.1 kmh SW 23.0 mph37.0 kmh 29.80 in1009.1 mb 0.00 in0.0 mm 0.00 in0.0 mm 0.02 in0.5 mm
01:45 PM 44.2°F6.8°C 37.0°F2.8°C 76% 11.0 mph SSW17.7 kmh SSW 23.0 mph37.0 kmh 29.79 in1008.8 mb 0.00 in0.0 mm 0.00 in0.0 mm 0.02 in0.5 mm
01:48 PM 44.1°F6.7°C 36.9°F2.7°C 76% 11.0 mph SSW17.7 kmh SSW 23.0 mph37.0 kmh 29.79 in1008.8 mb 0.00 in0.0 mm 0.00 in0.0 mm 0.02 in0.5 mm
01:51 PM 44.1°F6.7°C 37.2°F2.9°C 77% 10.0 mph SSW16.1 kmh SSW 23.0 mph37.0 kmh 29.79 in1008.8 mb 0.00 in0.0 mm 0.00 in0.0 mm 0.02 in0.5 mm
01:54 PM 44.4°F6.9°C 37.9°F3.3°C 78% 10.0 mph SSW16.1 kmh SSW 23.0 mph37.0 kmh 29.78 in1008.5 mb 0.00 in0.0 mm 0.00 in0.0 mm 0.02 in0.5 mm
01:57 PM 44.6°F7.0°C 38.1°F3.4°C 78% 11.0 mph SSW17.7 kmh SSW 23.0 mph37.0 kmh 29.78 in1008.5 mb 0.00 in0.0 mm 0.00 in0.0 mm 0.02 in0.5 mm
02:00 PM 44.4°F6.9°C 37.8°F3.2°C 77% 12.0 mph SSW19.3 kmh SSW 22.0 mph35.4 kmh 29.78 in1008.5 mb 0.00 in0.0 mm 0.00 in0.0 mm 0.02 in0.5 mm
02:03 PM 44.4°F6.9°C 37.9°F3.3°C 78% 12.0 mph SSW19.3 kmh SSW 22.0 mph35.4 kmh 29.78 in1008.5 mb 0.00 in0.0 mm 0.00 in0.0 mm 0.02 in0.5 mm
02:06 PM 44.8°F7.1°C 38.7°F3.7°C 79% 12.0 mph SW19.3 kmh SW 22.0 mph35.4 kmh 29.77 in1008.1 mb 0.00 in0.0 mm 0.00 in0.0 mm 0.02 in0.5 mm
02:09 PM 44.8°F7.1°C 37.9°F3.3°C 77% 10.0 mph SW16.1 kmh SW 19.0 mph30.6 kmh 29.77 in1008.1 mb 0.00 in0.0 mm 0.00 in0.0 mm 0.02 in0.5 mm
02:12 PM 45.0°F7.2°C 38.5°F3.6°C 78% 9.0 mph SSW14.5 kmh SSW 19.0 mph30.6 kmh 29.77 in1008.1 mb 0.00 in0.0 mm 0.00 in0.0 mm 0.02 in0.5 mm
02:15 PM 45.0°F7.2°C 38.5°F3.6°C 78% 10.0 mph SSW16.1 kmh SSW 19.0 mph30.6 kmh 29.76 in1007.8 mb 0.00 in0.0 mm 0.00 in0.0 mm 0.02 in0.5 mm
02:18 PM 45.0°F7.2°C 38.5°F3.6°C 78% 11.0 mph SSW17.7 kmh SSW 26.0 mph41.8 kmh 29.76 in1007.8 mb 0.00 in0.0 mm 0.00 in0.0 mm 0.02 in0.5 mm
02:21 PM 45.0°F7.2°C 38.8°F3.8°C 79% 12.0 mph SSW19.3 kmh SSW 26.0 mph41.8 kmh 29.76 in1007.8 mb 0.00 in0.0 mm 0.00 in0.0 mm 0.02 in0.5 mm
02:24 PM 45.0°F7.2°C 38.8°F3.8°C 79% 12.0 mph S19.3 kmh S 26.0 mph41.8 kmh 29.75 in1007.5 mb 0.00 in0.0 mm 0.00 in0.0 mm 0.02 in0.5 mm
02:27 PM 45.1°F7.3°C 38.7°F3.7°C 78% 12.0 mph S19.3 kmh S 24.0 mph38.6 kmh 29.75 in1007.5 mb 0.00 in0.0 mm 0.00 in0.0 mm 0.02 in0.5 mm
02:30 PM 45.1°F7.3°C 37.9°F3.3°C 76% 13.0 mph S20.9 kmh S 24.0 mph38.6 kmh 29.75 in1007.5 mb 0.00 in0.0 mm 0.00 in0.0 mm 0.02 in0.5 mm
02:33 PM 45.1°F7.3°C 37.2°F2.9°C 74% 13.0 mph SSW20.9 kmh SSW 24.0 mph38.6 kmh 29.75 in1007.5 mb 0.00 in0.0 mm 0.00 in0.0 mm 0.02 in0.5 mm
02:36 PM 45.3°F7.4°C 37.2°F2.9°C 73% 13.0 mph SSW20.9 kmh SSW 24.0 mph38.6 kmh 29.74 in1007.1 mb 0.00 in0.0 mm 0.00 in0.0 mm 0.02 in0.5 mm
02:39 PM 45.1°F7.3°C 37.0°F2.8°C 73% 11.0 mph SSW17.7 kmh SSW 23.0 mph37.0 kmh 29.74 in1007.1 mb 0.00 in0.0 mm 0.00 in0.0 mm 0.02 in0.5 mm
02:42 PM 45.0°F7.2°C 36.5°F2.5°C 72% 12.0 mph SSW19.3 kmh SSW 24.0 mph38.6 kmh 29.74 in1007.1 mb 0.00 in0.0 mm 0.00 in0.0 mm 0.02 in0.5 mm
02:45 PM 44.8°F7.1°C 36.3°F2.4°C 72% 13.0 mph SSW20.9 kmh SSW 25.0 mph40.2 kmh 29.74 in1007.1 mb 0.00 in0.0 mm 0.00 in0.0 mm 0.02 in0.5 mm
02:48 PM 44.4°F6.9°C 36.3°F2.4°C 73% 13.0 mph SW20.9 kmh SW 25.0 mph40.2 kmh 29.74 in1007.1 mb 0.00 in0.0 mm 0.00 in0.0 mm 0.02 in0.5 mm
02:51 PM 44.1°F6.7°C 36.3°F2.4°C 74% 12.0 mph SW19.3 kmh SW 25.0 mph40.2 kmh 29.73 in1006.8 mb 0.00 in0.0 mm 0.00 in0.0 mm 0.02 in0.5 mm
02:54 PM 43.7°F6.5°C 36.7°F2.6°C 76% 12.0 mph SW19.3 kmh SW 23.0 mph37.0 kmh 29.74 in1007.1 mb 0.00 in0.0 mm 0.00 in0.0 mm 0.02 in0.5 mm
02:57 PM 43.2°F6.2°C 36.7°F2.6°C 78% 12.0 mph SW19.3 kmh SW 22.0 mph35.4 kmh 29.74 in1007.1 mb 0.01 in0.3 mm 0.20 in5.1 mm 0.02 in0.5 mm
03:00 PM 42.6°F5.9°C 36.9°F2.7°C 80% 13.0 mph SW20.9 kmh SW 22.0 mph35.4 kmh 29.73 in1006.8 mb 0.01 in0.3 mm 0.00 in0.0 mm 0.02 in0.5 mm
03:03 PM 42.3°F5.7°C 37.6°F3.1°C 83% 12.0 mph SW19.3 kmh SW 22.0 mph35.4 kmh 29.73 in1006.8 mb 0.01 in0.3 mm 0.00 in0.0 mm 0.02 in0.5 mm
03:06 PM 42.3°F5.7°C 38.1°F3.4°C 85% 10.0 mph SW16.1 kmh SW 22.0 mph35.4 kmh 29.73 in1006.8 mb 0.01 in0.3 mm 0.00 in0.0 mm 0.02 in0.5 mm
03:09 PM 42.4°F5.8°C 38.7°F3.7°C 86% 9.0 mph SSW14.5 kmh SSW 18.0 mph29.0 kmh 29.73 in1006.8 mb 0.01 in0.3 mm 0.00 in0.0 mm 0.02 in0.5 mm
03:12 PM 42.6°F5.9°C 38.8°F3.8°C 86% 10.0 mph SSW16.1 kmh SSW 27.0 mph43.5 kmh 29.72 in1006.4 mb 0.01 in0.3 mm 0.00 in0.0 mm 0.02 in0.5 mm
03:15 PM 42.6°F5.9°C 38.5°F3.6°C 85% 11.0 mph S17.7 kmh S 27.0 mph43.5 kmh 29.71 in1006.1 mb 0.01 in0.3 mm 0.00 in0.0 mm 0.02 in0.5 mm
03:18 PM 43.2°F6.2°C 38.8°F3.8°C 85% 12.0 mph S19.3 kmh S 27.0 mph43.5 kmh 29.71 in1006.1 mb 0.01 in0.3 mm 0.00 in0.0 mm 0.02 in0.5 mm
03:21 PM 43.2°F6.2°C 38.3°F3.5°C 83% 13.0 mph S20.9 kmh S 24.0 mph38.6 kmh 29.71 in1006.1 mb 0.01 in0.3 mm 0.00 in0.0 mm 0.02 in0.5 mm
03:24 PM 43.3°F6.3°C 38.1°F3.4°C 82% 13.0 mph SSW20.9 kmh SSW 24.0 mph38.6 kmh 29.70 in1005.8 mb 0.01 in0.3 mm 0.00 in0.0 mm 0.02 in0.5 mm
03:27 PM 43.2°F6.2°C 37.8°F3.2°C 81% 15.0 mph SSW24.1 kmh SSW 28.0 mph45.1 kmh 29.70 in1005.8 mb 0.01 in0.3 mm 0.00 in0.0 mm 0.02 in0.5 mm
03:30 PM 43.2°F6.2°C 37.9°F3.3°C 82% 14.0 mph SSW22.5 kmh SSW 28.0 mph45.1 kmh 29.70 in1005.8 mb 0.01 in0.3 mm 0.00 in0.0 mm 0.02 in0.5 mm
03:33 PM 43.3°F6.3°C 38.1°F3.4°C 82% 14.0 mph S22.5 kmh S 28.0 mph45.1 kmh 29.69 in1005.4 mb 0.01 in0.3 mm 0.00 in0.0 mm 0.02 in0.5 mm
03:36 PM 43.3°F6.3°C 38.3°F3.5°C 82% 14.0 mph S22.5 kmh S 26.0 mph41.8 kmh 29.69 in1005.4 mb 0.01 in0.3 mm 0.00 in0.0 mm 0.02 in0.5 mm
03:39 PM 43.5°F6.4°C 38.1°F3.4°C 81% 14.0 mph S22.5 kmh S 26.0 mph41.8 kmh 29.68 in1005.1 mb 0.01 in0.3 mm 0.00 in0.0 mm 0.02 in0.5 mm
03:42 PM 43.5°F6.4°C 38.1°F3.4°C 81% 16.0 mph S25.7 kmh S 26.0 mph41.8 kmh 29.68 in1005.1 mb 0.01 in0.3 mm 0.00 in0.0 mm 0.02 in0.5 mm
03:45 PM 43.5°F6.4°C 38.1°F3.4°C 81% 16.0 mph S25.7 kmh S 29.0 mph46.7 kmh 29.68 in1005.1 mb 0.01 in0.3 mm 0.00 in0.0 mm 0.02 in0.5 mm
03:48 PM 43.5°F6.4°C 37.8°F3.2°C 80% 18.0 mph S29.0 kmh S 30.0 mph48.3 kmh 29.68 in1005.1 mb 0.01 in0.3 mm 0.00 in0.0 mm 0.02 in0.5 mm
03:51 PM 43.3°F6.3°C 37.9°F3.3°C 81% 17.0 mph S27.4 kmh S 30.0 mph48.3 kmh 29.68 in1005.1 mb 0.01 in0.3 mm 0.00 in0.0 mm 0.02 in0.5 mm
03:54 PM 43.3°F6.3°C 38.1°F3.4°C 82% 17.0 mph S27.4 kmh S 30.0 mph48.3 kmh 29.67 in1004.7 mb 0.01 in0.3 mm 0.00 in0.0 mm 0.02 in0.5 mm
03:57 PM 43.2°F6.2°C 38.1°F3.4°C 82% 17.0 mph S27.4 kmh S 29.0 mph46.7 kmh 29.66 in1004.4 mb 0.00 in0.0 mm 0.00 in0.0 mm 0.02 in0.5 mm
04:00 PM 43.2°F6.2°C 38.3°F3.5°C 83% 18.0 mph S29.0 kmh S 29.0 mph46.7 kmh 29.66 in1004.4 mb 0.00 in0.0 mm 0.00 in0.0 mm 0.02 in0.5 mm
04:03 PM 43.2°F6.2°C 38.7°F3.7°C 84% 19.0 mph S30.6 kmh S 29.0 mph46.7 kmh 29.66 in1004.4 mb 0.00 in0.0 mm 0.00 in0.0 mm 0.02 in0.5 mm
04:06 PM 43.2°F6.2°C 38.7°F3.7°C 84% 20.0 mph S32.2 kmh S 29.0 mph46.7 kmh 29.66 in1004.4 mb 0.00 in0.0 mm 0.00 in0.0 mm 0.02 in0.5 mm
04:09 PM 43.2°F6.2°C 38.8°F3.8°C 85% 20.0 mph S32.2 kmh S 30.0 mph48.3 kmh 29.65 in1004.1 mb 0.00 in0.0 mm 0.00 in0.0 mm 0.02 in0.5 mm
04:12 PM 43.2°F6.2°C 38.7°F3.7°C 84% 19.0 mph S30.6 kmh S 30.0 mph48.3 kmh 29.65 in1004.1 mb 0.00 in0.0 mm 0.00 in0.0 mm 0.02 in0.5 mm
04:15 PM 43.2°F6.2°C 38.3°F3.5°C 83% 19.0 mph S30.6 kmh S 31.0 mph49.9 kmh 29.65 in1004.1 mb 0.00 in0.0 mm 0.00 in0.0 mm 0.02 in0.5 mm
04:18 PM 43.2°F6.2°C 38.3°F3.5°C 83% 18.0 mph S29.0 kmh S 31.0 mph49.9 kmh 29.64 in1003.7 mb 0.00 in0.0 mm 0.00 in0.0 mm 0.02 in0.5 mm
04:21 PM 43.3°F6.3°C 38.5°F3.6°C 83% 17.0 mph S27.4 kmh S 31.0 mph49.9 kmh 29.64 in1003.7 mb 0.00 in0.0 mm 0.00 in0.0 mm 0.02 in0.5 mm
04:24 PM 43.7°F6.5°C 38.8°F3.8°C 83% 17.0 mph S27.4 kmh S 31.0 mph49.9 kmh 29.64 in1003.7 mb 0.00 in0.0 mm 0.00 in0.0 mm 0.02 in0.5 mm
04:27 PM 43.9°F6.6°C 38.8°F3.8°C 82% 15.0 mph S24.1 kmh S 29.0 mph46.7 kmh 29.64 in1003.7 mb 0.00 in0.0 mm 0.00 in0.0 mm 0.02 in0.5 mm
04:30 PM 43.9°F6.6°C 38.5°F3.6°C 81% 14.0 mph S22.5 kmh S 29.0 mph46.7 kmh 29.64 in1003.7 mb 0.00 in0.0 mm 0.00 in0.0 mm 0.02 in0.5 mm
04:33 PM 43.9°F6.6°C 38.5°F3.6°C 81% 15.0 mph S24.1 kmh S 29.0 mph46.7 kmh 29.63 in1003.4 mb 0.00 in0.0 mm 0.00 in0.0 mm 0.02 in0.5 mm
04:36 PM 43.9°F6.6°C 38.1°F3.4°C 80% 16.0 mph S25.7 kmh S 31.0 mph49.9 kmh 29.62 in1003.0 mb 0.00 in0.0 mm 0.00 in0.0 mm 0.02 in0.5 mm
04:39 PM 43.7°F6.5°C 38.3°F3.5°C 81% 17.0 mph S27.4 kmh S 31.0 mph49.9 kmh 29.62 in1003.0 mb 0.00 in0.0 mm 0.00 in0.0 mm 0.02 in0.5 mm
04:42 PM 43.5°F6.4°C 38.1°F3.4°C 81% 18.0 mph S29.0 kmh S 33.0 mph53.1 kmh 29.62 in1003.0 mb 0.00 in0.0 mm 0.00 in0.0 mm 0.02 in0.5 mm
04:45 PM 43.3°F6.3°C 37.9°F3.3°C 81% 19.0 mph S30.6 kmh S 33.0 mph53.1 kmh 29.61 in1002.7 mb 0.00 in0.0 mm 0.00 in0.0 mm 0.02 in0.5 mm
04:48 PM 43.3°F6.3°C 37.9°F3.3°C 81% 19.0 mph S30.6 kmh S 33.0 mph53.1 kmh 29.61 in1002.7 mb 0.00 in0.0 mm 0.00 in0.0 mm 0.02 in0.5 mm
04:51 PM 43.5°F6.4°C 38.3°F3.5°C 82% 19.0 mph S30.6 kmh S 33.0 mph53.1 kmh 29.61 in1002.7 mb 0.00 in0.0 mm 0.00 in0.0 mm 0.02 in0.5 mm
04:54 PM 43.5°F6.4°C 38.7°F3.7°C 83% 18.0 mph S29.0 kmh S 38.0 mph61.2 kmh 29.61 in1002.7 mb 0.00 in0.0 mm 0.00 in0.0 mm 0.02 in0.5 mm
04:57 PM 43.3°F6.3°C 38.7°F3.7°C 83% 18.0 mph S29.0 kmh S 38.0 mph61.2 kmh 29.61 in1002.7 mb 0.00 in0.0 mm 0.00 in0.0 mm 0.02 in0.5 mm
05:00 PM 43.2°F6.2°C 37.6°F3.1°C 81% 19.0 mph S30.6 kmh S 39.0 mph62.8 kmh 29.60 in1002.4 mb 0.00 in0.0 mm 0.00 in0.0 mm 0.02 in0.5 mm
05:03 PM 43.0°F6.1°C 37.4°F3.0°C 81% 20.0 mph S32.2 kmh S 39.0 mph62.8 kmh 29.60 in1002.4 mb 0.00 in0.0 mm 0.00 in0.0 mm 0.02 in0.5 mm
05:06 PM 43.0°F6.1°C 37.8°F3.2°C 82% 21.0 mph S33.8 kmh S 39.0 mph62.8 kmh 29.60 in1002.4 mb 0.00 in0.0 mm 0.00 in0.0 mm 0.02 in0.5 mm
05:09 PM 43.0°F6.1°C 37.8°F3.2°C 82% 20.0 mph S32.2 kmh S 35.0 mph56.3 kmh 29.60 in1002.4 mb 0.00 in0.0 mm 0.00 in0.0 mm 0.02 in0.5 mm
05:12 PM 43.0°F6.1°C 37.8°F3.2°C 82% 20.0 mph S32.2 kmh S 35.0 mph56.3 kmh 29.59 in1002.0 mb 0.00 in0.0 mm 0.00 in0.0 mm 0.02 in0.5 mm
05:15 PM 43.2°F6.2°C 37.4°F3.0°C 80% 21.0 mph S33.8 kmh S 35.0 mph56.3 kmh 29.58 in1001.7 mb 0.00 in0.0 mm 0.00 in0.0 mm 0.02 in0.5 mm
05:18 PM 43.3°F6.3°C 37.6°F3.1°C 80% 21.0 mph S33.8 kmh S 34.0 mph54.7 kmh 29.59 in1002.0 mb 0.00 in0.0 mm 0.00 in0.0 mm 0.02 in0.5 mm
05:21 PM 43.5°F6.4°C 37.8°F3.2°C 80% 22.0 mph S35.4 kmh S 45.0 mph72.4 kmh 29.59 in1002.0 mb 0.00 in0.0 mm 0.00 in0.0 mm 0.02 in0.5 mm
05:24 PM 43.2°F6.2°C 37.4°F3.0°C 80% 23.0 mph S37.0 kmh S 45.0 mph72.4 kmh 29.58 in1001.7 mb 0.01 in0.3 mm 0.20 in5.1 mm 0.03 in0.8 mm
05:27 PM 42.6°F5.9°C 37.4°F3.0°C 82% 23.0 mph S37.0 kmh S 45.0 mph72.4 kmh 29.58 in1001.7 mb 0.01 in0.3 mm 0.00 in0.0 mm 0.03 in0.8 mm
05:30 PM 42.3°F5.7°C 37.0°F2.8°C 82% 24.0 mph S38.6 kmh S 45.0 mph72.4 kmh 29.57 in1001.4 mb 0.01 in0.3 mm 0.00 in0.0 mm 0.03 in0.8 mm
05:33 PM 42.3°F5.7°C 37.0°F2.8°C 82% 22.0 mph S35.4 kmh S 40.0 mph64.4 kmh 29.57 in1001.4 mb 0.01 in0.3 mm 0.00 in0.0 mm 0.03 in0.8 mm
05:36 PM 42.3°F5.7°C 37.4°F3.0°C 83% 22.0 mph S35.4 kmh S 40.0 mph64.4 kmh 29.57 in1001.4 mb 0.01 in0.3 mm 0.00 in0.0 mm 0.03 in0.8 mm
05:39 PM 42.3°F5.7°C 37.6°F3.1°C 83% 21.0 mph S33.8 kmh S 40.0 mph64.4 kmh 29.57 in1001.4 mb 0.01 in0.3 mm 0.00 in0.0 mm 0.03 in0.8 mm
05:42 PM 42.3°F5.7°C 37.8°F3.2°C 84% 21.0 mph S33.8 kmh S 38.0 mph61.2 kmh 29.56 in1001.0 mb 0.01 in0.3 mm 0.00 in0.0 mm 0.03 in0.8 mm
05:45 PM 42.4°F5.8°C 37.9°F3.3°C 84% 22.0 mph S35.4 kmh S 38.0 mph61.2 kmh 29.56 in1001.0 mb 0.01 in0.3 mm 0.00 in0.0 mm 0.03 in0.8 mm
05:48 PM 42.6°F5.9°C 38.1°F3.4°C 84% 23.0 mph S37.0 kmh S 38.0 mph61.2 kmh 29.55 in1000.7 mb 0.01 in0.3 mm 0.00 in0.0 mm 0.03 in0.8 mm
05:51 PM 42.6°F5.9°C 38.5°F3.6°C 85% 23.0 mph S37.0 kmh S 36.0 mph57.9 kmh 29.55 in1000.7 mb 0.01 in0.3 mm 0.00 in0.0 mm 0.03 in0.8 mm
05:54 PM 43.0°F6.1°C 39.0°F3.9°C 86% 24.0 mph S38.6 kmh S 42.0 mph67.6 kmh 29.55 in1000.7 mb 0.01 in0.3 mm 0.00 in0.0 mm 0.03 in0.8 mm
05:57 PM 43.2°F6.2°C 39.0°F3.9°C 85% 26.0 mph S41.8 kmh S 49.0 mph78.9 kmh 29.54 in1000.3 mb 0.01 in0.3 mm 0.00 in0.0 mm 0.03 in0.8 mm
06:00 PM 43.5°F6.4°C 39.0°F3.9°C 84% 26.0 mph S41.8 kmh S 49.0 mph78.9 kmh 29.54 in1000.3 mb 0.01 in0.3 mm 0.00 in0.0 mm 0.03 in0.8 mm
06:03 PM 43.7°F6.5°C 38.8°F3.8°C 83% 26.0 mph S41.8 kmh S 49.0 mph78.9 kmh 29.54 in1000.3 mb 0.01 in0.3 mm 0.00 in0.0 mm 0.03 in0.8 mm
06:06 PM 43.9°F6.6°C 39.0°F3.9°C 83% 25.0 mph S40.2 kmh S 42.0 mph67.6 kmh 29.54 in1000.3 mb 0.01 in0.3 mm 0.00 in0.0 mm 0.03 in0.8 mm
06:09 PM 43.9°F6.6°C 38.8°F3.8°C 82% 24.0 mph S38.6 kmh S 39.0 mph62.8 kmh 29.54 in1000.3 mb 0.01 in0.3 mm 0.00 in0.0 mm 0.03 in0.8 mm
06:12 PM 43.9°F6.6°C 38.5°F3.6°C 81% 23.0 mph S37.0 kmh S 41.0 mph66.0 kmh 29.53 in1000.0 mb 0.01 in0.3 mm 0.00 in0.0 mm 0.03 in0.8 mm
06:15 PM 43.9°F6.6°C 38.3°F3.5°C 81% 23.0 mph S37.0 kmh S 41.0 mph66.0 kmh 29.53 in1000.0 mb 0.01 in0.3 mm 0.00 in0.0 mm 0.03 in0.8 mm
06:18 PM 43.9°F6.6°C 38.3°F3.5°C 81% 22.0 mph S35.4 kmh S 41.0 mph66.0 kmh 29.53 in1000.0 mb 0.01 in0.3 mm 0.00 in0.0 mm 0.03 in0.8 mm
06:21 PM 43.7°F6.5°C 38.5°F3.6°C 82% 22.0 mph S35.4 kmh S 36.0 mph57.9 kmh 29.52 in999.7 mb 0.00 in0.0 mm 0.00 in0.0 mm 0.03 in0.8 mm
06:24 PM 43.5°F6.4°C 38.5°F3.6°C 82% 23.0 mph S37.0 kmh S 44.0 mph70.8 kmh 29.52 in999.7 mb 0.00 in0.0 mm 0.00 in0.0 mm 0.03 in0.8 mm
06:27 PM 43.5°F6.4°C 38.3°F3.5°C 82% 24.0 mph S38.6 kmh S 44.0 mph70.8 kmh 29.52 in999.7 mb 0.00 in0.0 mm 0.00 in0.0 mm 0.03 in0.8 mm
06:30 PM 43.5°F6.4°C 38.7°F3.7°C 83% 25.0 mph S40.2 kmh S 44.0 mph70.8 kmh 29.52 in999.7 mb 0.00 in0.0 mm 0.00 in0.0 mm 0.03 in0.8 mm
06:33 PM 43.5°F6.4°C 38.8°F3.8°C 83% 26.0 mph S41.8 kmh S 42.0 mph67.6 kmh 29.51 in999.3 mb 0.00 in0.0 mm 0.00 in0.0 mm 0.03 in0.8 mm
06:36 PM 43.9°F6.6°C 39.0°F3.9°C 83% 26.0 mph S41.8 kmh S 42.0 mph67.6 kmh 29.51 in999.3 mb 0.00 in0.0 mm 0.00 in0.0 mm 0.03 in0.8 mm
06:39 PM 44.1°F6.7°C 39.2°F4.0°C 83% 27.0 mph S43.5 kmh S 42.0 mph67.6 kmh 29.51 in999.3 mb 0.00 in0.0 mm 0.00 in0.0 mm 0.03 in0.8 mm
06:42 PM 44.1°F6.7°C 39.0°F3.9°C 82% 29.0 mph S46.7 kmh S 50.0 mph80.5 kmh 29.51 in999.3 mb 0.00 in0.0 mm 0.00 in0.0 mm 0.03 in0.8 mm
06:45 PM 43.9°F6.6°C 39.0°F3.9°C 83% 29.0 mph S46.7 kmh S 50.0 mph80.5 kmh 29.50 in999.0 mb 0.01 in0.3 mm 0.20 in5.1 mm 0.04 in1.0 mm
06:48 PM 43.3°F6.3°C 39.2°F4.0°C 85% 28.0 mph S45.1 kmh S 50.0 mph80.5 kmh 29.50 in999.0 mb 0.01 in0.3 mm 0.00 in0.0 mm 0.04 in1.0 mm
06:51 PM 43.3°F6.3°C 39.4°F4.1°C 86% 26.0 mph S41.8 kmh S 45.0 mph72.4 kmh 29.50 in999.0 mb 0.01 in0.3 mm 0.00 in0.0 mm 0.04 in1.0 mm
06:54 PM 43.3°F6.3°C 39.4°F4.1°C 86% 24.0 mph S38.6 kmh S 37.0 mph59.5 kmh 29.49 in998.6 mb 0.01 in0.3 mm 0.00 in0.0 mm 0.04 in1.0 mm
06:57 PM 43.5°F6.4°C 39.6°F4.2°C 86% 24.0 mph S38.6 kmh S 37.0 mph59.5 kmh 29.48 in998.3 mb 0.01 in0.3 mm 0.00 in0.0 mm 0.04 in1.0 mm
07:00 PM 43.5°F6.4°C 39.7°F4.3°C 86% 24.0 mph S38.6 kmh S 37.0 mph59.5 kmh 29.48 in998.3 mb 0.01 in0.3 mm 0.00 in0.0 mm 0.04 in1.0 mm
07:03 PM 43.7°F6.5°C 39.7°F4.3°C 86% 24.0 mph S38.6 kmh S 37.0 mph59.5 kmh 29.48 in998.3 mb 0.01 in0.3 mm 0.00 in0.0 mm 0.04 in1.0 mm
07:06 PM 43.9°F6.6°C 39.9°F4.4°C 86% 24.0 mph S38.6 kmh S 37.0 mph59.5 kmh 29.47 in998.0 mb 0.01 in0.3 mm 0.00 in0.0 mm 0.04 in1.0 mm
07:09 PM 43.9°F6.6°C 39.9°F4.4°C 86% 24.0 mph S38.6 kmh S 38.0 mph61.2 kmh 29.47 in998.0 mb 0.01 in0.3 mm 0.00 in0.0 mm 0.04 in1.0 mm
07:12 PM 43.9°F6.6°C 39.9°F4.4°C 86% 26.0 mph S41.8 kmh S 51.0 mph82.1 kmh 29.47 in998.0 mb 0.01 in0.3 mm 0.00 in0.0 mm 0.04 in1.0 mm
07:15 PM 43.9°F6.6°C 39.9°F4.4°C 86% 28.0 mph S45.1 kmh S 51.0 mph82.1 kmh 29.46 in997.6 mb 0.01 in0.3 mm 0.00 in0.0 mm 0.04 in1.0 mm
07:18 PM 43.7°F6.5°C 39.7°F4.3°C 86% 27.0 mph S43.5 kmh S 51.0 mph82.1 kmh 29.46 in997.6 mb 0.01 in0.3 mm 0.00 in0.0 mm 0.04 in1.0 mm
07:21 PM 43.5°F6.4°C 39.9°F4.4°C 87% 28.0 mph S45.1 kmh S 50.0 mph80.5 kmh 29.45 in997.3 mb 0.02 in0.5 mm 0.20 in5.1 mm 0.05 in1.3 mm
07:24 PM 43.3°F6.3°C 39.7°F4.3°C 87% 27.0 mph S43.5 kmh S 50.0 mph80.5 kmh 29.45 in997.3 mb 0.02 in0.5 mm 0.00 in0.0 mm 0.05 in1.3 mm
07:27 PM 43.2°F6.2°C 39.9°F4.4°C 88% 29.0 mph S46.7 kmh S 50.0 mph80.5 kmh 29.45 in997.3 mb 0.02 in0.5 mm 0.00 in0.0 mm 0.05 in1.3 mm
07:30 PM 43.2°F6.2°C 39.9°F4.4°C 88% 29.0 mph S46.7 kmh S 50.0 mph80.5 kmh 29.45 in997.3 mb 0.02 in0.5 mm 0.00 in0.0 mm 0.05 in1.3 mm
07:33 PM 43.3°F6.3°C 40.3°F4.6°C 89% 28.0 mph S45.1 kmh S 44.0 mph70.8 kmh 29.44 in997.0 mb 0.02 in0.5 mm 0.00 in0.0 mm 0.05 in1.3 mm
07:36 PM 43.5°F6.4°C 40.6°F4.8°C 89% 28.0 mph S45.1 kmh S 42.0 mph67.6 kmh 29.44 in997.0 mb 0.02 in0.5 mm 0.00 in0.0 mm 0.05 in1.3 mm
07:39 PM 43.7°F6.5°C 40.6°F4.8°C 89% 28.0 mph S45.1 kmh S 42.0 mph67.6 kmh 29.43 in996.6 mb 0.02 in0.5 mm 0.00 in0.0 mm 0.05 in1.3 mm
07:42 PM 44.1°F6.7°C 40.6°F4.8°C 88% 27.0 mph S43.5 kmh S 41.0 mph66.0 kmh 29.43 in996.6 mb 0.02 in0.5 mm 0.00 in0.0 mm 0.05 in1.3 mm
07:45 PM 44.1°F6.7°C 40.8°F4.9°C 88% 27.0 mph S43.5 kmh S 42.0 mph67.6 kmh 29.43 in996.6 mb 0.01 in0.3 mm 0.00 in0.0 mm 0.05 in1.3 mm
07:48 PM 44.2°F6.8°C 40.8°F4.9°C 88% 28.0 mph S45.1 kmh S 42.0 mph67.6 kmh 29.43 in996.6 mb 0.01 in0.3 mm 0.00 in0.0 mm 0.05 in1.3 mm
07:51 PM 44.4°F6.9°C 40.8°F4.9°C 87% 27.0 mph S43.5 kmh S 45.0 mph72.4 kmh 29.42 in996.3 mb 0.01 in0.3 mm 0.00 in0.0 mm 0.05 in1.3 mm
07:54 PM 44.4°F6.9°C 40.8°F4.9°C 87% 29.0 mph S46.7 kmh S 47.0 mph75.6 kmh 29.41 in995.9 mb 0.01 in0.3 mm 0.00 in0.0 mm 0.05 in1.3 mm
07:57 PM 44.4°F6.9°C 40.8°F4.9°C 87% 30.0 mph S48.3 kmh S 53.0 mph85.3 kmh 29.41 in995.9 mb 0.02 in0.5 mm 0.20 in5.1 mm 0.06 in1.5 mm
08:00 PM 44.4°F6.9°C 40.8°F4.9°C 87% 32.0 mph S51.5 kmh S 53.0 mph85.3 kmh 29.41 in995.9 mb 0.02 in0.5 mm 0.00 in0.0 mm 0.06 in1.5 mm
08:03 PM 44.4°F6.9°C 40.8°F4.9°C 87% 32.0 mph S51.5 kmh S 53.0 mph85.3 kmh 29.41 in995.9 mb 0.02 in0.5 mm 0.00 in0.0 mm 0.06 in1.5 mm
08:06 PM 44.4°F6.9°C 41.0°F5.0°C 88% 30.0 mph S48.3 kmh S 45.0 mph72.4 kmh 29.41 in995.9 mb 0.02 in0.5 mm 0.00 in0.0 mm 0.06 in1.5 mm
08:09 PM 44.2°F6.8°C 40.6°F4.8°C 87% 29.0 mph S46.7 kmh S 45.0 mph72.4 kmh 29.40 in995.6 mb 0.02 in0.5 mm 0.00 in0.0 mm 0.06 in1.5 mm
08:12 PM 44.4°F6.9°C 40.8°F4.9°C 87% 28.0 mph S45.1 kmh S 44.0 mph70.8 kmh 29.39 in995.3 mb 0.02 in0.5 mm 0.00 in0.0 mm 0.06 in1.5 mm
08:15 PM 44.4°F6.9°C 40.6°F4.8°C 86% 29.0 mph S46.7 kmh S 44.0 mph70.8 kmh 29.39 in995.3 mb 0.02 in0.5 mm 0.00 in0.0 mm 0.06 in1.5 mm
08:18 PM 44.6°F7.0°C 40.6°F4.8°C 86% 29.0 mph S46.7 kmh S 43.0 mph69.2 kmh 29.39 in995.3 mb 0.02 in0.5 mm 0.00 in0.0 mm 0.06 in1.5 mm
08:21 PM 44.8°F7.1°C 40.8°F4.9°C 86% 28.0 mph S45.1 kmh S 40.0 mph64.4 kmh 29.38 in994.9 mb 0.01 in0.3 mm 0.00 in0.0 mm 0.06 in1.5 mm
08:24 PM 44.8°F7.1°C 40.8°F4.9°C 86% 30.0 mph S48.3 kmh S 46.0 mph74.0 kmh 29.37 in994.6 mb 0.01 in0.3 mm 0.00 in0.0 mm 0.06 in1.5 mm
08:27 PM 45.0°F7.2°C 40.8°F4.9°C 85% 30.0 mph S48.3 kmh S 55.0 mph88.5 kmh 29.38 in994.9 mb 0.01 in0.3 mm 0.00 in0.0 mm 0.06 in1.5 mm
08:30 PM 45.0°F7.2°C 41.0°F5.0°C 86% 31.0 mph S49.9 kmh S 55.0 mph88.5 kmh 29.37 in994.6 mb 0.01 in0.3 mm 0.00 in0.0 mm 0.06 in1.5 mm
08:33 PM 44.8°F7.1°C 41.2°F5.1°C 87% 32.0 mph S51.5 kmh S 55.0 mph88.5 kmh 29.36 in994.2 mb 0.01 in0.3 mm 0.00 in0.0 mm 0.06 in1.5 mm
08:36 PM 44.8°F7.1°C 41.2°F5.1°C 87% 32.0 mph S51.5 kmh S 55.0 mph88.5 kmh 29.37 in994.6 mb 0.01 in0.3 mm 0.00 in0.0 mm 0.06 in1.5 mm
08:39 PM 44.8°F7.1°C 41.2°F5.1°C 87% 33.0 mph S53.1 kmh S 44.0 mph70.8 kmh 29.36 in994.2 mb 0.01 in0.3 mm 0.00 in0.0 mm 0.06 in1.5 mm
08:42 PM 45.0°F7.2°C 41.2°F5.1°C 87% 32.0 mph S51.5 kmh S 47.0 mph75.6 kmh 29.36 in994.2 mb 0.01 in0.3 mm 0.00 in0.0 mm 0.06 in1.5 mm
08:45 PM 45.0°F7.2°C 41.4°F5.2°C 87% 32.0 mph S51.5 kmh S 47.0 mph75.6 kmh 29.36 in994.2 mb 0.01 in0.3 mm 0.00 in0.0 mm 0.06 in1.5 mm
08:48 PM 45.1°F7.3°C 41.2°F5.1°C 86% 31.0 mph S49.9 kmh S 47.0 mph75.6 kmh 29.36 in994.2 mb 0.01 in0.3 mm 0.00 in0.0 mm 0.06 in1.5 mm
08:51 PM 45.1°F7.3°C 41.5°F5.3°C 87% 31.0 mph S49.9 kmh S 47.0 mph75.6 kmh 29.35 in993.9 mb 0.01 in0.3 mm 0.00 in0.0 mm 0.06 in1.5 mm
08:54 PM 45.1°F7.3°C 41.5°F5.3°C 87% 30.0 mph S48.3 kmh S 46.0 mph74.0 kmh 29.34 in993.6 mb 0.00 in0.0 mm 0.00 in0.0 mm 0.06 in1.5 mm
08:57 PM 45.1°F7.3°C 41.2°F5.1°C 86% 29.0 mph S46.7 kmh S 45.0 mph72.4 kmh 29.34 in993.6 mb 0.00 in0.0 mm 0.00 in0.0 mm 0.06 in1.5 mm
09:00 PM 45.1°F7.3°C 41.5°F5.3°C 87% 30.0 mph S48.3 kmh S 45.0 mph72.4 kmh 29.34 in993.6 mb 0.00 in0.0 mm 0.00 in0.0 mm 0.06 in1.5 mm
09:03 PM 45.1°F7.3°C 41.5°F5.3°C 87% 31.0 mph S49.9 kmh S 54.0 mph86.9 kmh 29.34 in993.6 mb 0.00 in0.0 mm 0.00 in0.0 mm 0.06 in1.5 mm
09:06 PM 45.0°F7.2°C 41.5°F5.3°C 88% 32.0 mph S51.5 kmh S 54.0 mph86.9 kmh 29.34 in993.6 mb 0.00 in0.0 mm 0.00 in0.0 mm 0.06 in1.5 mm
09:09 PM 44.8°F7.1°C 41.7°F5.4°C 89% 32.0 mph S51.5 kmh S 54.0 mph86.9 kmh 29.34 in993.6 mb 0.00 in0.0 mm 0.00 in0.0 mm 0.06 in1.5 mm
09:12 PM 44.8°F7.1°C 41.7°F5.4°C 89% 30.0 mph S48.3 kmh S 47.0 mph75.6 kmh 29.33 in993.2 mb 0.01 in0.3 mm 0.20 in5.1 mm 0.06 in1.5 mm
09:15 PM 44.8°F7.1°C 41.7°F5.4°C 89% 31.0 mph S49.9 kmh S 47.0 mph75.6 kmh 29.33 in993.2 mb 0.01 in0.3 mm 0.00 in0.0 mm 0.06 in1.5 mm
09:18 PM 44.8°F7.1°C 41.7°F5.4°C 89% 31.0 mph S49.9 kmh S 47.0 mph75.6 kmh 29.32 in992.9 mb 0.01 in0.3 mm 0.00 in0.0 mm 0.06 in1.5 mm
09:21 PM 44.8°F7.1°C 41.7°F5.4°C 89% 33.0 mph S53.1 kmh S 51.0 mph82.1 kmh 29.31 in992.6 mb 0.01 in0.3 mm 0.00 in0.0 mm 0.06 in1.5 mm
09:24 PM 44.8°F7.1°C 41.7°F5.4°C 89% 33.0 mph S53.1 kmh S 51.0 mph82.1 kmh 29.31 in992.6 mb 0.01 in0.3 mm 0.00 in0.0 mm 0.06 in1.5 mm
09:27 PM 45.0°F7.2°C 42.1°F5.6°C 90% 32.0 mph S51.5 kmh S 51.0 mph82.1 kmh 29.31 in992.6 mb 0.01 in0.3 mm 0.00 in0.0 mm 0.06 in1.5 mm
09:30 PM 45.0°F7.2°C 41.9°F5.5°C 89% 34.0 mph S54.7 kmh S 55.0 mph88.5 kmh 29.29 in991.9 mb 0.02 in0.5 mm 0.20 in5.1 mm 0.07 in1.8 mm
09:33 PM 45.0°F7.2°C 41.9°F5.5°C 89% 35.0 mph S56.3 kmh S 55.0 mph88.5 kmh 29.29 in991.9 mb 0.02 in0.5 mm 0.00 in0.0 mm 0.07 in1.8 mm
09:36 PM 45.0°F7.2°C 41.9°F5.5°C 89% 36.0 mph S57.9 kmh S 55.0 mph88.5 kmh 29.29 in991.9 mb 0.02 in0.5 mm 0.00 in0.0 mm 0.07 in1.8 mm
09:39 PM 45.0°F7.2°C 41.9°F5.5°C 89% 35.0 mph S56.3 kmh S 53.0 mph85.3 kmh 29.29 in991.9 mb 0.02 in0.5 mm 0.00 in0.0 mm 0.07 in1.8 mm
09:42 PM 45.0°F7.2°C 41.9°F5.5°C 89% 34.0 mph S54.7 kmh S 53.0 mph85.3 kmh 29.28 in991.5 mb 0.02 in0.5 mm 0.00 in0.0 mm 0.07 in1.8 mm
09:45 PM 45.0°F7.2°C 42.3°F5.7°C 90% 35.0 mph S56.3 kmh S 53.0 mph85.3 kmh 29.28 in991.5 mb 0.02 in0.5 mm 0.00 in0.0 mm 0.08 in2.0 mm
09:48 PM 45.0°F7.2°C 42.3°F5.7°C 90% 34.0 mph S54.7 kmh S 50.0 mph80.5 kmh 29.27 in991.2 mb 0.02 in0.5 mm 0.00 in0.0 mm 0.08 in2.0 mm
09:51 PM 45.0°F7.2°C 42.3°F5.7°C 90% 33.0 mph S53.1 kmh S 50.0 mph80.5 kmh 29.28 in991.5 mb 0.03 in0.8 mm 0.20 in5.1 mm 0.09 in2.3 mm
09:54 PM 45.0°F7.2°C 42.1°F5.6°C 90% 32.0 mph S51.5 kmh S 49.0 mph78.9 kmh 29.27 in991.2 mb 0.04 in1.0 mm 0.20 in5.1 mm 0.09 in2.3 mm
09:57 PM 44.8°F7.1°C 42.1°F5.6°C 90% 32.0 mph S51.5 kmh S 49.0 mph78.9 kmh 29.27 in991.2 mb 0.05 in1.3 mm 0.20 in5.1 mm 0.10 in2.5 mm
10:00 PM 44.6°F7.0°C 42.1°F5.6°C 91% 32.0 mph S51.5 kmh S 49.0 mph78.9 kmh 29.27 in991.2 mb 0.06 in1.5 mm 0.01 in0.3 mm 0.11 in2.8 mm
10:03 PM 44.4°F6.9°C 42.1°F5.6°C 91% 34.0 mph S54.7 kmh S 55.0 mph88.5 kmh 29.26 in990.9 mb 0.06 in1.5 mm 0.00 in0.0 mm 0.12 in3.0 mm
10:06 PM 44.2°F6.8°C 41.9°F5.5°C 91% 36.0 mph S57.9 kmh S 55.0 mph88.5 kmh 29.26 in990.9 mb 0.08 in2.0 mm 0.40 in10.2 mm 0.13 in3.3 mm
10:09 PM 44.1°F6.7°C 41.7°F5.4°C 91% 36.0 mph S57.9 kmh S 55.0 mph88.5 kmh 29.26 in990.9 mb 0.08 in2.0 mm 0.00 in0.0 mm 0.13 in3.3 mm
10:12 PM 44.1°F6.7°C 41.5°F5.3°C 91% 35.0 mph S56.3 kmh S 55.0 mph88.5 kmh 29.25 in990.5 mb 0.09 in2.3 mm 0.20 in5.1 mm 0.15 in3.8 mm
10:15 PM 43.9°F6.6°C 41.4°F5.2°C 91% 33.0 mph S53.1 kmh S 52.0 mph83.7 kmh 29.26 in990.9 mb 0.09 in2.3 mm 0.00 in0.0 mm 0.16 in4.1 mm
10:18 PM 43.5°F6.4°C 41.2°F5.1°C 91% 31.0 mph S49.9 kmh S 47.0 mph75.6 kmh 29.25 in990.5 mb 0.10 in2.5 mm 0.20 in5.1 mm 0.17 in4.3 mm
10:21 PM 43.5°F6.4°C 41.4°F5.2°C 92% 31.0 mph S49.9 kmh S 47.0 mph75.6 kmh 29.25 in990.5 mb 0.10 in2.5 mm 0.00 in0.0 mm 0.17 in4.3 mm
10:24 PM 43.7°F6.5°C 41.5°F5.3°C 92% 32.0 mph S51.5 kmh S 51.0 mph82.1 kmh 29.24 in990.2 mb 0.10 in2.5 mm 0.00 in0.0 mm 0.17 in4.3 mm
10:27 PM 43.9°F6.6°C 41.5°F5.3°C 92% 33.0 mph S53.1 kmh S 56.0 mph90.1 kmh 29.22 in989.5 mb 0.09 in2.3 mm 0.00 in0.0 mm 0.17 in4.3 mm
10:30 PM 44.1°F6.7°C 41.9°F5.5°C 92% 33.0 mph S53.1 kmh S 56.0 mph90.1 kmh 29.22 in989.5 mb 0.10 in2.5 mm 0.20 in5.1 mm 0.17 in4.3 mm
10:33 PM 44.2°F6.8°C 42.1°F5.6°C 92% 35.0 mph S56.3 kmh S 56.0 mph90.1 kmh 29.22 in989.5 mb 0.11 in2.8 mm 0.20 in5.1 mm 0.18 in4.6 mm
10:36 PM 44.2°F6.8°C 42.1°F5.6°C 92% 36.0 mph S57.9 kmh S 56.0 mph90.1 kmh 29.21 in989.2 mb 0.11 in2.8 mm 0.00 in0.0 mm 0.18 in4.6 mm
10:39 PM 44.2°F6.8°C 42.1°F5.6°C 92% 36.0 mph S57.9 kmh S 66.0 mph106.2 kmh 29.20 in988.8 mb 0.12 in3.0 mm 0.20 in5.1 mm 0.19 in4.8 mm
10:42 PM 44.1°F6.7°C 41.5°F5.3°C 91% 42.0 mph S67.6 kmh S 66.0 mph106.2 kmh 29.19 in988.5 mb 0.12 in3.0 mm 0.00 in0.0 mm 0.20 in5.1 mm
10:45 PM 43.9°F6.6°C 41.7°F5.4°C 92% 43.0 mph S69.2 kmh S 66.0 mph106.2 kmh 29.20 in988.8 mb 0.13 in3.3 mm 0.20 in5.1 mm 0.20 in5.1 mm
10:48 PM 43.9°F6.6°C 41.5°F5.3°C 92% 43.0 mph S69.2 kmh S 59.0 mph95.0 kmh 29.20 in988.8 mb 0.13 in3.3 mm 0.00 in0.0 mm 0.21 in5.3 mm
10:51 PM 43.3°F6.3°C 41.0°F5.0°C 91% 39.0 mph S62.8 kmh S 59.0 mph95.0 kmh 29.20 in988.8 mb 0.15 in3.8 mm 0.40 in10.2 mm 0.24 in6.1 mm
10:54 PM 43.2°F6.2°C 41.0°F5.0°C 92% 33.0 mph S53.1 kmh S 56.0 mph90.1 kmh 29.22 in989.5 mb 0.14 in3.6 mm 0.00 in0.0 mm 0.24 in6.1 mm
10:57 PM 42.6°F5.9°C 40.1°F4.5°C 91% 28.0 mph S45.1 kmh S 56.0 mph90.1 kmh 29.22 in989.5 mb 0.14 in3.6 mm 0.00 in0.0 mm 0.24 in6.1 mm
11:00 PM 42.1°F5.6°C 39.7°F4.3°C 91% 24.0 mph S38.6 kmh S 44.0 mph70.8 kmh 29.22 in989.5 mb 0.13 in3.3 mm 0.00 in0.0 mm 0.24 in6.1 mm
11:03 PM 41.7°F5.4°C 39.6°F4.2°C 92% 20.0 mph S32.2 kmh S 33.0 mph53.1 kmh 29.21 in989.2 mb 0.12 in3.0 mm 0.00 in0.0 mm 0.24 in6.1 mm
11:06 PM 41.7°F5.4°C 39.6°F4.2°C 92% 18.0 mph S29.0 kmh S 30.0 mph48.3 kmh 29.21 in989.2 mb 0.11 in2.8 mm 0.00 in0.0 mm 0.24 in6.1 mm
11:09 PM 41.5°F5.3°C 39.4°F4.1°C 92% 18.0 mph S29.0 kmh S 30.0 mph48.3 kmh 29.21 in989.2 mb 0.10 in2.5 mm 0.00 in0.0 mm 0.24 in6.1 mm
11:12 PM 41.7°F5.4°C 39.6°F4.2°C 92% 17.0 mph S27.4 kmh S 32.0 mph51.5 kmh 29.21 in989.2 mb 0.09 in2.3 mm 0.00 in0.0 mm 0.24 in6.1 mm
11:15 PM 41.7°F5.4°C 39.9°F4.4°C 93% 17.0 mph S27.4 kmh S 32.0 mph51.5 kmh 29.20 in988.8 mb 0.09 in2.3 mm 0.00 in0.0 mm 0.24 in6.1 mm
11:18 PM 41.9°F5.5°C 40.1°F4.5°C 93% 18.0 mph S29.0 kmh S 32.0 mph51.5 kmh 29.20 in988.8 mb 0.08 in2.0 mm 0.00 in0.0 mm 0.24 in6.1 mm
11:21 PM 42.1°F5.6°C 40.3°F4.6°C 93% 17.0 mph S27.4 kmh S 31.0 mph49.9 kmh 29.20 in988.8 mb 0.08 in2.0 mm 0.00 in0.0 mm 0.24 in6.1 mm
11:24 PM 42.3°F5.7°C 40.3°F4.6°C 93% 17.0 mph S27.4 kmh S 31.0 mph49.9 kmh 29.20 in988.8 mb 0.08 in2.0 mm 0.00 in0.0 mm 0.24 in6.1 mm
11:27 PM 42.3°F5.7°C 40.5°F4.7°C 93% 16.0 mph SSW25.7 kmh SSW 31.0 mph49.9 kmh 29.21 in989.2 mb 0.08 in2.0 mm 0.00 in0.0 mm 0.24 in6.1 mm
11:30 PM 42.4°F5.8°C 40.5°F4.7°C 93% 15.0 mph SW24.1 kmh SW 31.0 mph49.9 kmh 29.21 in989.2 mb 0.07 in1.8 mm 0.00 in0.0 mm 0.24 in6.1 mm
11:33 PM 42.3°F5.7°C 40.5°F4.7°C 93% 15.0 mph SW24.1 kmh SW 31.0 mph49.9 kmh 29.22 in989.5 mb 0.06 in1.5 mm 0.00 in0.0 mm 0.24 in6.1 mm
11:36 PM 42.3°F5.7°C 40.5°F4.7°C 93% 14.0 mph SW22.5 kmh SW 31.0 mph49.9 kmh 29.22 in989.5 mb 0.06 in1.5 mm 0.00 in0.0 mm 0.24 in6.1 mm
11:39 PM 42.1°F5.6°C 40.3°F4.6°C 93% 14.0 mph SW22.5 kmh SW 31.0 mph49.9 kmh 29.23 in989.8 mb 0.06 in1.5 mm 0.00 in0.0 mm 0.24 in6.1 mm
11:42 PM 42.1°F5.6°C 39.9°F4.4°C 92% 14.0 mph WSW22.5 kmh WSW 25.0 mph40.2 kmh 29.23 in989.8 mb 0.05 in1.3 mm 0.00 in0.0 mm 0.24 in6.1 mm
11:45 PM 41.7°F5.4°C 39.9°F4.4°C 93% 13.0 mph WSW20.9 kmh WSW 25.0 mph40.2 kmh 29.24 in990.2 mb 0.04 in1.0 mm 0.00 in0.0 mm 0.24 in6.1 mm
11:48 PM 41.7°F5.4°C 39.7°F4.3°C 93% 12.0 mph WSW19.3 kmh WSW 23.0 mph37.0 kmh 29.24 in990.2 mb 0.02 in0.5 mm 0.00 in0.0 mm 0.24 in6.1 mm
11:51 PM 41.4°F5.2°C 39.2°F4.0°C 92% 9.0 mph W14.5 kmh W 17.0 mph27.4 kmh 29.25 in990.5 mb 0.01 in0.3 mm 0.00 in0.0 mm 0.24 in6.1 mm
11:54 PM 41.0°F5.0°C 38.8°F3.8°C 92% 9.0 mph W14.5 kmh W 17.0 mph27.4 kmh 29.25 in990.5 mb 0.01 in0.3 mm 0.00 in0.0 mm 0.24 in6.1 mm
11:57 PM 40.6°F4.8°C 38.5°F3.6°C 92% 10.0 mph W16.1 kmh W 19.0 mph30.6 kmh 29.25 in990.5 mb 0.00 in0.0 mm 0.00 in0.0 mm 0.24 in6.1 mm